<?xml version="1.0" encoding="UTF-8" standalone="no" ?>
<gpx xmlns="http://www.topografix.com/GPX/1/1" xmlns:xsi="http://www.w3.org/2001/XMLSchema-instance" xsi:schemaLocation="http://www.topografix.com/GPX/1/1 http://www.topografix.com/GPX/1/1/gpx.xsd" version="1.1" creator="VisuGPX - https://www.visugpx.com">
  <metadata>
    <name>adeps Huissignies</name>
    <desc><![CDATA[10kms le 21 juillet 2016]]></desc>
  </metadata>
  <trk>
    <name><![CDATA[HUISSIGNIES21:07:19]]></name>
    <trkseg>
      <trkpt lat="50.5645" lon="3.75398">
        <ele>16.96</ele>
        <time>2016-07-21T07:10:28Z</time>
      </trkpt>
      <trkpt lat="50.56444" lon="3.75388">
        <ele>18.4</ele>
        <time>2016-07-21T07:10:36Z</time>
      </trkpt>
      <trkpt lat="50.56446" lon="3.75383">
        <ele>21.29</ele>
        <time>2016-07-21T07:10:43Z</time>
      </trkpt>
      <trkpt lat="50.56448" lon="3.75381">
        <ele>24.17</ele>
        <time>2016-07-21T07:10:47Z</time>
      </trkpt>
      <trkpt lat="50.56448" lon="3.75379">
        <ele>25.61</ele>
        <time>2016-07-21T07:10:49Z</time>
      </trkpt>
      <trkpt lat="50.56448" lon="3.75376">
        <ele>28.02</ele>
        <time>2016-07-21T07:10:53Z</time>
      </trkpt>
      <trkpt lat="50.56446" lon="3.75375">
        <ele>28.98</ele>
        <time>2016-07-21T07:10:55Z</time>
      </trkpt>
      <trkpt lat="50.56445" lon="3.75374">
        <ele>29.46</ele>
        <time>2016-07-21T07:10:56Z</time>
      </trkpt>
      <trkpt lat="50.56439" lon="3.75371">
        <ele>33.78</ele>
        <time>2016-07-21T07:11:02Z</time>
      </trkpt>
      <trkpt lat="50.56435" lon="3.75369">
        <ele>33.78</ele>
        <time>2016-07-21T07:11:05Z</time>
      </trkpt>
      <trkpt lat="50.5643" lon="3.75364">
        <ele>37.15</ele>
        <time>2016-07-21T07:11:09Z</time>
      </trkpt>
      <trkpt lat="50.56422" lon="3.75356">
        <ele>38.59</ele>
        <time>2016-07-21T07:11:16Z</time>
      </trkpt>
      <trkpt lat="50.56412" lon="3.75342">
        <ele>40.99</ele>
        <time>2016-07-21T07:11:28Z</time>
      </trkpt>
      <trkpt lat="50.56396" lon="3.75313">
        <ele>41.47</ele>
        <time>2016-07-21T07:11:46Z</time>
      </trkpt>
      <trkpt lat="50.56395" lon="3.75308">
        <ele>40.51</ele>
        <time>2016-07-21T07:11:48Z</time>
      </trkpt>
      <trkpt lat="50.56394" lon="3.75304">
        <ele>41.95</ele>
        <time>2016-07-21T07:11:50Z</time>
      </trkpt>
      <trkpt lat="50.56389" lon="3.75292">
        <ele>40.03</ele>
        <time>2016-07-21T07:11:59Z</time>
      </trkpt>
      <trkpt lat="50.56387" lon="3.75287">
        <ele>41.95</ele>
        <time>2016-07-21T07:12:02Z</time>
      </trkpt>
      <trkpt lat="50.56386" lon="3.75285">
        <ele>40.03</ele>
        <time>2016-07-21T07:12:04Z</time>
      </trkpt>
      <trkpt lat="50.56383" lon="3.75279">
        <ele>41.95</ele>
        <time>2016-07-21T07:12:08Z</time>
      </trkpt>
      <trkpt lat="50.56377" lon="3.75258">
        <ele>41.47</ele>
        <time>2016-07-21T07:12:20Z</time>
      </trkpt>
      <trkpt lat="50.56375" lon="3.75252">
        <ele>41.95</ele>
        <time>2016-07-21T07:12:24Z</time>
      </trkpt>
      <trkpt lat="50.56368" lon="3.75241">
        <ele>41.47</ele>
        <time>2016-07-21T07:12:32Z</time>
      </trkpt>
      <trkpt lat="50.56356" lon="3.75215">
        <ele>40.51</ele>
        <time>2016-07-21T07:12:46Z</time>
      </trkpt>
      <trkpt lat="50.56355" lon="3.7521">
        <ele>42.92</ele>
        <time>2016-07-21T07:12:49Z</time>
      </trkpt>
      <trkpt lat="50.56347" lon="3.75193">
        <ele>42.44</ele>
        <time>2016-07-21T07:12:59Z</time>
      </trkpt>
      <trkpt lat="50.56346" lon="3.7519">
        <ele>40.51</ele>
        <time>2016-07-21T07:13:02Z</time>
      </trkpt>
      <trkpt lat="50.56347" lon="3.75184">
        <ele>42.44</ele>
        <time>2016-07-21T07:13:05Z</time>
      </trkpt>
      <trkpt lat="50.56346" lon="3.7517">
        <ele>40.99</ele>
        <time>2016-07-21T07:13:13Z</time>
      </trkpt>
      <trkpt lat="50.56345" lon="3.75168">
        <ele>40.99</ele>
        <time>2016-07-21T07:13:14Z</time>
      </trkpt>
      <trkpt lat="50.56341" lon="3.75157">
        <ele>39.55</ele>
        <time>2016-07-21T07:13:20Z</time>
      </trkpt>
      <trkpt lat="50.5634" lon="3.75153">
        <ele>42.92</ele>
        <time>2016-07-21T07:13:22Z</time>
      </trkpt>
      <trkpt lat="50.56332" lon="3.75133">
        <ele>40.03</ele>
        <time>2016-07-21T07:13:32Z</time>
      </trkpt>
      <trkpt lat="50.56331" lon="3.7513">
        <ele>43.4</ele>
        <time>2016-07-21T07:13:34Z</time>
      </trkpt>
      <trkpt lat="50.5633" lon="3.75128">
        <ele>43.4</ele>
        <time>2016-07-21T07:13:35Z</time>
      </trkpt>
      <trkpt lat="50.56328" lon="3.75124">
        <ele>41.47</ele>
        <time>2016-07-21T07:13:37Z</time>
      </trkpt>
      <trkpt lat="50.56323" lon="3.75111">
        <ele>40.51</ele>
        <time>2016-07-21T07:13:45Z</time>
      </trkpt>
      <trkpt lat="50.56311" lon="3.7508">
        <ele>40.99</ele>
        <time>2016-07-21T07:14:05Z</time>
      </trkpt>
      <trkpt lat="50.56311" lon="3.75071">
        <ele>42.92</ele>
        <time>2016-07-21T07:14:09Z</time>
      </trkpt>
      <trkpt lat="50.56308" lon="3.75066">
        <ele>40.99</ele>
        <time>2016-07-21T07:14:12Z</time>
      </trkpt>
      <trkpt lat="50.56301" lon="3.75054">
        <ele>41.95</ele>
        <time>2016-07-21T07:14:19Z</time>
      </trkpt>
      <trkpt lat="50.56299" lon="3.75036">
        <ele>42.92</ele>
        <time>2016-07-21T07:14:28Z</time>
      </trkpt>
      <trkpt lat="50.56298" lon="3.75016">
        <ele>42.92</ele>
        <time>2016-07-21T07:14:37Z</time>
      </trkpt>
      <trkpt lat="50.56294" lon="3.75018">
        <ele>41.47</ele>
        <time>2016-07-21T07:14:50Z</time>
      </trkpt>
      <trkpt lat="50.56297" lon="3.75014">
        <ele>43.4</ele>
        <time>2016-07-21T07:14:55Z</time>
      </trkpt>
      <trkpt lat="50.56299" lon="3.75011">
        <ele>41.95</ele>
        <time>2016-07-21T07:14:57Z</time>
      </trkpt>
      <trkpt lat="50.56305" lon="3.75006">
        <ele>42.92</ele>
        <time>2016-07-21T07:15:03Z</time>
      </trkpt>
      <trkpt lat="50.5631" lon="3.74999">
        <ele>40.99</ele>
        <time>2016-07-21T07:15:07Z</time>
      </trkpt>
      <trkpt lat="50.56316" lon="3.74988">
        <ele>43.88</ele>
        <time>2016-07-21T07:15:13Z</time>
      </trkpt>
      <trkpt lat="50.56322" lon="3.74982">
        <ele>42.44</ele>
        <time>2016-07-21T07:15:18Z</time>
      </trkpt>
      <trkpt lat="50.56327" lon="3.74975">
        <ele>42.92</ele>
        <time>2016-07-21T07:15:23Z</time>
      </trkpt>
      <trkpt lat="50.56336" lon="3.74964">
        <ele>43.4</ele>
        <time>2016-07-21T07:15:33Z</time>
      </trkpt>
      <trkpt lat="50.56354" lon="3.74942">
        <ele>42.92</ele>
        <time>2016-07-21T07:15:50Z</time>
      </trkpt>
      <trkpt lat="50.56357" lon="3.74936">
        <ele>44.36</ele>
        <time>2016-07-21T07:15:54Z</time>
      </trkpt>
      <trkpt lat="50.56362" lon="3.7493">
        <ele>42.92</ele>
        <time>2016-07-21T07:15:58Z</time>
      </trkpt>
      <trkpt lat="50.56366" lon="3.74926">
        <ele>44.36</ele>
        <time>2016-07-21T07:16:01Z</time>
      </trkpt>
      <trkpt lat="50.56377" lon="3.74915">
        <ele>43.4</ele>
        <time>2016-07-21T07:16:11Z</time>
      </trkpt>
      <trkpt lat="50.56378" lon="3.74913">
        <ele>44.84</ele>
        <time>2016-07-21T07:16:13Z</time>
      </trkpt>
      <trkpt lat="50.56381" lon="3.74909">
        <ele>44.84</ele>
        <time>2016-07-21T07:16:16Z</time>
      </trkpt>
      <trkpt lat="50.56389" lon="3.74898">
        <ele>43.4</ele>
        <time>2016-07-21T07:16:24Z</time>
      </trkpt>
      <trkpt lat="50.56393" lon="3.74893">
        <ele>45.8</ele>
        <time>2016-07-21T07:16:28Z</time>
      </trkpt>
      <trkpt lat="50.56407" lon="3.74874">
        <ele>42.92</ele>
        <time>2016-07-21T07:16:42Z</time>
      </trkpt>
      <trkpt lat="50.56408" lon="3.74873">
        <ele>45.32</ele>
        <time>2016-07-21T07:16:43Z</time>
      </trkpt>
      <trkpt lat="50.56414" lon="3.74864">
        <ele>44.84</ele>
        <time>2016-07-21T07:16:48Z</time>
      </trkpt>
      <trkpt lat="50.56422" lon="3.74853">
        <ele>43.88</ele>
        <time>2016-07-21T07:16:56Z</time>
      </trkpt>
      <trkpt lat="50.56441" lon="3.74826">
        <ele>44.36</ele>
        <time>2016-07-21T07:17:14Z</time>
      </trkpt>
      <trkpt lat="50.56447" lon="3.74817">
        <ele>45.32</ele>
        <time>2016-07-21T07:17:20Z</time>
      </trkpt>
      <trkpt lat="50.56469" lon="3.74795">
        <ele>45.32</ele>
        <time>2016-07-21T07:17:41Z</time>
      </trkpt>
      <trkpt lat="50.56488" lon="3.74772">
        <ele>45.8</ele>
        <time>2016-07-21T07:17:59Z</time>
      </trkpt>
      <trkpt lat="50.56492" lon="3.74768">
        <ele>44.36</ele>
        <time>2016-07-21T07:18:04Z</time>
      </trkpt>
      <trkpt lat="50.56497" lon="3.74761">
        <ele>46.28</ele>
        <time>2016-07-21T07:18:09Z</time>
      </trkpt>
      <trkpt lat="50.56512" lon="3.74741">
        <ele>43.88</ele>
        <time>2016-07-21T07:18:23Z</time>
      </trkpt>
      <trkpt lat="50.56513" lon="3.74739">
        <ele>47.24</ele>
        <time>2016-07-21T07:18:25Z</time>
      </trkpt>
      <trkpt lat="50.5653" lon="3.74714">
        <ele>46.76</ele>
        <time>2016-07-21T07:18:42Z</time>
      </trkpt>
      <trkpt lat="50.56542" lon="3.747">
        <ele>44.36</ele>
        <time>2016-07-21T07:18:52Z</time>
      </trkpt>
      <trkpt lat="50.56545" lon="3.74695">
        <ele>46.76</ele>
        <time>2016-07-21T07:18:55Z</time>
      </trkpt>
      <trkpt lat="50.56548" lon="3.74691">
        <ele>45.8</ele>
        <time>2016-07-21T07:18:58Z</time>
      </trkpt>
      <trkpt lat="50.5656" lon="3.74675">
        <ele>46.28</ele>
        <time>2016-07-21T07:19:11Z</time>
      </trkpt>
      <trkpt lat="50.56563" lon="3.74668">
        <ele>44.84</ele>
        <time>2016-07-21T07:19:14Z</time>
      </trkpt>
      <trkpt lat="50.56582" lon="3.74643">
        <ele>45.8</ele>
        <time>2016-07-21T07:19:34Z</time>
      </trkpt>
      <trkpt lat="50.56584" lon="3.74641">
        <ele>44.84</ele>
        <time>2016-07-21T07:19:36Z</time>
      </trkpt>
      <trkpt lat="50.56587" lon="3.74639">
        <ele>45.8</ele>
        <time>2016-07-21T07:19:39Z</time>
      </trkpt>
      <trkpt lat="50.56607" lon="3.74627">
        <ele>45.32</ele>
        <time>2016-07-21T07:19:57Z</time>
      </trkpt>
      <trkpt lat="50.5661" lon="3.74632">
        <ele>46.76</ele>
        <time>2016-07-21T07:20:01Z</time>
      </trkpt>
      <trkpt lat="50.56613" lon="3.7464">
        <ele>45.8</ele>
        <time>2016-07-21T07:20:08Z</time>
      </trkpt>
      <trkpt lat="50.56617" lon="3.74646">
        <ele>44.36</ele>
        <time>2016-07-21T07:20:12Z</time>
      </trkpt>
      <trkpt lat="50.5662" lon="3.74651">
        <ele>45.8</ele>
        <time>2016-07-21T07:20:15Z</time>
      </trkpt>
      <trkpt lat="50.56627" lon="3.7466">
        <ele>44.84</ele>
        <time>2016-07-21T07:20:22Z</time>
      </trkpt>
      <trkpt lat="50.56631" lon="3.74659">
        <ele>43.4</ele>
        <time>2016-07-21T07:20:26Z</time>
      </trkpt>
      <trkpt lat="50.56633" lon="3.74658">
        <ele>45.8</ele>
        <time>2016-07-21T07:20:28Z</time>
      </trkpt>
      <trkpt lat="50.56639" lon="3.74656">
        <ele>43.88</ele>
        <time>2016-07-21T07:20:31Z</time>
      </trkpt>
      <trkpt lat="50.56659" lon="3.74672">
        <ele>44.84</ele>
        <time>2016-07-21T07:20:47Z</time>
      </trkpt>
      <trkpt lat="50.56663" lon="3.74672">
        <ele>44.84</ele>
        <time>2016-07-21T07:20:50Z</time>
      </trkpt>
      <trkpt lat="50.56691" lon="3.74676">
        <ele>42.92</ele>
        <time>2016-07-21T07:21:09Z</time>
      </trkpt>
      <trkpt lat="50.56703" lon="3.74684">
        <ele>44.84</ele>
        <time>2016-07-21T07:21:20Z</time>
      </trkpt>
      <trkpt lat="50.56707" lon="3.74686">
        <ele>42.92</ele>
        <time>2016-07-21T07:21:23Z</time>
      </trkpt>
      <trkpt lat="50.56729" lon="3.74692">
        <ele>43.4</ele>
        <time>2016-07-21T07:21:39Z</time>
      </trkpt>
      <trkpt lat="50.5673" lon="3.74693">
        <ele>43.4</ele>
        <time>2016-07-21T07:21:40Z</time>
      </trkpt>
      <trkpt lat="50.56735" lon="3.74696">
        <ele>41.95</ele>
        <time>2016-07-21T07:21:44Z</time>
      </trkpt>
      <trkpt lat="50.56747" lon="3.74703">
        <ele>41.95</ele>
        <time>2016-07-21T07:21:55Z</time>
      </trkpt>
      <trkpt lat="50.56754" lon="3.74704">
        <ele>43.88</ele>
        <time>2016-07-21T07:22:01Z</time>
      </trkpt>
      <trkpt lat="50.56757" lon="3.74703">
        <ele>41.95</ele>
        <time>2016-07-21T07:22:03Z</time>
      </trkpt>
      <trkpt lat="50.56763" lon="3.74704">
        <ele>43.4</ele>
        <time>2016-07-21T07:22:08Z</time>
      </trkpt>
      <trkpt lat="50.56776" lon="3.74706">
        <ele>44.36</ele>
        <time>2016-07-21T07:22:15Z</time>
      </trkpt>
      <trkpt lat="50.56792" lon="3.74708">
        <ele>44.84</ele>
        <time>2016-07-21T07:22:26Z</time>
      </trkpt>
      <trkpt lat="50.56804" lon="3.74713">
        <ele>43.4</ele>
        <time>2016-07-21T07:22:35Z</time>
      </trkpt>
      <trkpt lat="50.56808" lon="3.74715">
        <ele>44.84</ele>
        <time>2016-07-21T07:22:39Z</time>
      </trkpt>
      <trkpt lat="50.56816" lon="3.74722">
        <ele>43.4</ele>
        <time>2016-07-21T07:22:47Z</time>
      </trkpt>
      <trkpt lat="50.56832" lon="3.74727">
        <ele>45.8</ele>
        <time>2016-07-21T07:23:02Z</time>
      </trkpt>
      <trkpt lat="50.56838" lon="3.74729">
        <ele>44.84</ele>
        <time>2016-07-21T07:23:07Z</time>
      </trkpt>
      <trkpt lat="50.56849" lon="3.74737">
        <ele>46.76</ele>
        <time>2016-07-21T07:23:15Z</time>
      </trkpt>
      <trkpt lat="50.56858" lon="3.74737">
        <ele>45.32</ele>
        <time>2016-07-21T07:23:23Z</time>
      </trkpt>
      <trkpt lat="50.56862" lon="3.74738">
        <ele>46.76</ele>
        <time>2016-07-21T07:23:26Z</time>
      </trkpt>
      <trkpt lat="50.56865" lon="3.74739">
        <ele>45.32</ele>
        <time>2016-07-21T07:23:30Z</time>
      </trkpt>
      <trkpt lat="50.56866" lon="3.74739">
        <ele>47.24</ele>
        <time>2016-07-21T07:23:31Z</time>
      </trkpt>
      <trkpt lat="50.56874" lon="3.74743">
        <ele>45.32</ele>
        <time>2016-07-21T07:23:36Z</time>
      </trkpt>
      <trkpt lat="50.56878" lon="3.74745">
        <ele>46.76</ele>
        <time>2016-07-21T07:23:42Z</time>
      </trkpt>
      <trkpt lat="50.56875" lon="3.74743">
        <ele>45.8</ele>
        <time>2016-07-21T07:23:45Z</time>
      </trkpt>
      <trkpt lat="50.56874" lon="3.74743">
        <ele>45.8</ele>
        <time>2016-07-21T07:23:46Z</time>
      </trkpt>
      <trkpt lat="50.56853" lon="3.74729">
        <ele>44.84</ele>
        <time>2016-07-21T07:24:05Z</time>
      </trkpt>
      <trkpt lat="50.56853" lon="3.74727">
        <ele>43.4</ele>
        <time>2016-07-21T07:24:07Z</time>
      </trkpt>
      <trkpt lat="50.56853" lon="3.74721">
        <ele>47.24</ele>
        <time>2016-07-21T07:24:10Z</time>
      </trkpt>
      <trkpt lat="50.56853" lon="3.74718">
        <ele>47.24</ele>
        <time>2016-07-21T07:24:11Z</time>
      </trkpt>
      <trkpt lat="50.56855" lon="3.74703">
        <ele>47.24</ele>
        <time>2016-07-21T07:24:18Z</time>
      </trkpt>
      <trkpt lat="50.56859" lon="3.74693">
        <ele>47.72</ele>
        <time>2016-07-21T07:24:23Z</time>
      </trkpt>
      <trkpt lat="50.56866" lon="3.74675">
        <ele>45.8</ele>
        <time>2016-07-21T07:24:32Z</time>
      </trkpt>
      <trkpt lat="50.56868" lon="3.7467">
        <ele>47.72</ele>
        <time>2016-07-21T07:24:34Z</time>
      </trkpt>
      <trkpt lat="50.56873" lon="3.74654">
        <ele>48.2</ele>
        <time>2016-07-21T07:24:45Z</time>
      </trkpt>
      <trkpt lat="50.56882" lon="3.74636">
        <ele>45.8</ele>
        <time>2016-07-21T07:24:56Z</time>
      </trkpt>
      <trkpt lat="50.56884" lon="3.74633">
        <ele>49.16</ele>
        <time>2016-07-21T07:24:58Z</time>
      </trkpt>
      <trkpt lat="50.56885" lon="3.74632">
        <ele>49.16</ele>
        <time>2016-07-21T07:24:59Z</time>
      </trkpt>
      <trkpt lat="50.56887" lon="3.74628">
        <ele>46.76</ele>
        <time>2016-07-21T07:25:01Z</time>
      </trkpt>
      <trkpt lat="50.56888" lon="3.74626">
        <ele>48.2</ele>
        <time>2016-07-21T07:25:02Z</time>
      </trkpt>
      <trkpt lat="50.56888" lon="3.74623">
        <ele>47.72</ele>
        <time>2016-07-21T07:25:04Z</time>
      </trkpt>
      <trkpt lat="50.5689" lon="3.74614">
        <ele>48.68</ele>
        <time>2016-07-21T07:25:09Z</time>
      </trkpt>
      <trkpt lat="50.56893" lon="3.74604">
        <ele>47.24</ele>
        <time>2016-07-21T07:25:14Z</time>
      </trkpt>
      <trkpt lat="50.56894" lon="3.74596">
        <ele>49.16</ele>
        <time>2016-07-21T07:25:20Z</time>
      </trkpt>
      <trkpt lat="50.56891" lon="3.74592">
        <ele>47.24</ele>
        <time>2016-07-21T07:25:23Z</time>
      </trkpt>
      <trkpt lat="50.56885" lon="3.74588">
        <ele>46.76</ele>
        <time>2016-07-21T07:25:28Z</time>
      </trkpt>
      <trkpt lat="50.5688" lon="3.74582">
        <ele>48.2</ele>
        <time>2016-07-21T07:25:33Z</time>
      </trkpt>
      <trkpt lat="50.56876" lon="3.74578">
        <ele>46.76</ele>
        <time>2016-07-21T07:25:36Z</time>
      </trkpt>
      <trkpt lat="50.56869" lon="3.74564">
        <ele>47.24</ele>
        <time>2016-07-21T07:25:45Z</time>
      </trkpt>
      <trkpt lat="50.56865" lon="3.74553">
        <ele>46.28</ele>
        <time>2016-07-21T07:25:52Z</time>
      </trkpt>
      <trkpt lat="50.56862" lon="3.74547">
        <ele>47.24</ele>
        <time>2016-07-21T07:25:56Z</time>
      </trkpt>
      <trkpt lat="50.56862" lon="3.74543">
        <ele>45.32</ele>
        <time>2016-07-21T07:25:58Z</time>
      </trkpt>
      <trkpt lat="50.56864" lon="3.74528">
        <ele>48.2</ele>
        <time>2016-07-21T07:26:04Z</time>
      </trkpt>
      <trkpt lat="50.56869" lon="3.74513">
        <ele>49.65</ele>
        <time>2016-07-21T07:26:11Z</time>
      </trkpt>
      <trkpt lat="50.5687" lon="3.74509">
        <ele>48.2</ele>
        <time>2016-07-21T07:26:13Z</time>
      </trkpt>
      <trkpt lat="50.56873" lon="3.74495">
        <ele>49.65</ele>
        <time>2016-07-21T07:26:21Z</time>
      </trkpt>
      <trkpt lat="50.5687" lon="3.74493">
        <ele>48.2</ele>
        <time>2016-07-21T07:26:24Z</time>
      </trkpt>
      <trkpt lat="50.56869" lon="3.74493">
        <ele>47.24</ele>
        <time>2016-07-21T07:26:25Z</time>
      </trkpt>
      <trkpt lat="50.56857" lon="3.7449">
        <ele>48.68</ele>
        <time>2016-07-21T07:26:34Z</time>
      </trkpt>
      <trkpt lat="50.56855" lon="3.7449">
        <ele>47.24</ele>
        <time>2016-07-21T07:26:36Z</time>
      </trkpt>
      <trkpt lat="50.56849" lon="3.74495">
        <ele>47.72</ele>
        <time>2016-07-21T07:26:43Z</time>
      </trkpt>
      <trkpt lat="50.56844" lon="3.74495">
        <ele>45.8</ele>
        <time>2016-07-21T07:26:48Z</time>
      </trkpt>
      <trkpt lat="50.56838" lon="3.74494">
        <ele>47.24</ele>
        <time>2016-07-21T07:26:53Z</time>
      </trkpt>
      <trkpt lat="50.56836" lon="3.74493">
        <ele>45.8</ele>
        <time>2016-07-21T07:26:55Z</time>
      </trkpt>
      <trkpt lat="50.56824" lon="3.74485">
        <ele>42.92</ele>
        <time>2016-07-21T07:27:10Z</time>
      </trkpt>
      <trkpt lat="50.5682" lon="3.74484">
        <ele>44.84</ele>
        <time>2016-07-21T07:27:12Z</time>
      </trkpt>
      <trkpt lat="50.56808" lon="3.74481">
        <ele>43.4</ele>
        <time>2016-07-21T07:27:18Z</time>
      </trkpt>
      <trkpt lat="50.56799" lon="3.74485">
        <ele>44.36</ele>
        <time>2016-07-21T07:27:24Z</time>
      </trkpt>
      <trkpt lat="50.56796" lon="3.74488">
        <ele>41.95</ele>
        <time>2016-07-21T07:27:27Z</time>
      </trkpt>
      <trkpt lat="50.56793" lon="3.74491">
        <ele>43.4</ele>
        <time>2016-07-21T07:27:31Z</time>
      </trkpt>
      <trkpt lat="50.56789" lon="3.74495">
        <ele>41.47</ele>
        <time>2016-07-21T07:27:35Z</time>
      </trkpt>
      <trkpt lat="50.56786" lon="3.74497">
        <ele>43.88</ele>
        <time>2016-07-21T07:27:38Z</time>
      </trkpt>
      <trkpt lat="50.56783" lon="3.74496">
        <ele>42.44</ele>
        <time>2016-07-21T07:27:41Z</time>
      </trkpt>
      <trkpt lat="50.5678" lon="3.74491">
        <ele>41.95</ele>
        <time>2016-07-21T07:27:45Z</time>
      </trkpt>
      <trkpt lat="50.56776" lon="3.74484">
        <ele>42.92</ele>
        <time>2016-07-21T07:27:49Z</time>
      </trkpt>
      <trkpt lat="50.56774" lon="3.7448">
        <ele>43.88</ele>
        <time>2016-07-21T07:27:51Z</time>
      </trkpt>
      <trkpt lat="50.5677" lon="3.74473">
        <ele>42.44</ele>
        <time>2016-07-21T07:27:55Z</time>
      </trkpt>
      <trkpt lat="50.56768" lon="3.74471">
        <ele>44.36</ele>
        <time>2016-07-21T07:27:57Z</time>
      </trkpt>
      <trkpt lat="50.56764" lon="3.74461">
        <ele>45.32</ele>
        <time>2016-07-21T07:28:04Z</time>
      </trkpt>
      <trkpt lat="50.56754" lon="3.74445">
        <ele>41.95</ele>
        <time>2016-07-21T07:28:13Z</time>
      </trkpt>
      <trkpt lat="50.56751" lon="3.7444">
        <ele>45.32</ele>
        <time>2016-07-21T07:28:16Z</time>
      </trkpt>
      <trkpt lat="50.56742" lon="3.74424">
        <ele>44.84</ele>
        <time>2016-07-21T07:28:28Z</time>
      </trkpt>
      <trkpt lat="50.56722" lon="3.74404">
        <ele>44.84</ele>
        <time>2016-07-21T07:28:46Z</time>
      </trkpt>
      <trkpt lat="50.56712" lon="3.7439">
        <ele>46.28</ele>
        <time>2016-07-21T07:28:58Z</time>
      </trkpt>
      <trkpt lat="50.5671" lon="3.74387">
        <ele>44.84</ele>
        <time>2016-07-21T07:29:00Z</time>
      </trkpt>
      <trkpt lat="50.56703" lon="3.74381">
        <ele>47.24</ele>
        <time>2016-07-21T07:29:05Z</time>
      </trkpt>
      <trkpt lat="50.56699" lon="3.74378">
        <ele>44.36</ele>
        <time>2016-07-21T07:29:08Z</time>
      </trkpt>
      <trkpt lat="50.56693" lon="3.74377">
        <ele>43.88</ele>
        <time>2016-07-21T07:29:13Z</time>
      </trkpt>
      <trkpt lat="50.56689" lon="3.74381">
        <ele>45.8</ele>
        <time>2016-07-21T07:29:17Z</time>
      </trkpt>
      <trkpt lat="50.56684" lon="3.74388">
        <ele>44.36</ele>
        <time>2016-07-21T07:29:22Z</time>
      </trkpt>
      <trkpt lat="50.56679" lon="3.74393">
        <ele>45.8</ele>
        <time>2016-07-21T07:29:29Z</time>
      </trkpt>
      <trkpt lat="50.56677" lon="3.74395">
        <ele>44.84</ele>
        <time>2016-07-21T07:29:31Z</time>
      </trkpt>
      <trkpt lat="50.56667" lon="3.74407">
        <ele>46.28</ele>
        <time>2016-07-21T07:29:39Z</time>
      </trkpt>
      <trkpt lat="50.56665" lon="3.74415">
        <ele>44.84</ele>
        <time>2016-07-21T07:29:43Z</time>
      </trkpt>
      <trkpt lat="50.56657" lon="3.74406">
        <ele>47.24</ele>
        <time>2016-07-21T07:29:51Z</time>
      </trkpt>
      <trkpt lat="50.56654" lon="3.74399">
        <ele>45.8</ele>
        <time>2016-07-21T07:29:54Z</time>
      </trkpt>
      <trkpt lat="50.56645" lon="3.7438">
        <ele>47.72</ele>
        <time>2016-07-21T07:30:06Z</time>
      </trkpt>
      <trkpt lat="50.56645" lon="3.74377">
        <ele>45.8</ele>
        <time>2016-07-21T07:30:08Z</time>
      </trkpt>
      <trkpt lat="50.56636" lon="3.74351">
        <ele>47.72</ele>
        <time>2016-07-21T07:30:20Z</time>
      </trkpt>
      <trkpt lat="50.56632" lon="3.74345">
        <ele>46.76</ele>
        <time>2016-07-21T07:30:23Z</time>
      </trkpt>
      <trkpt lat="50.56622" lon="3.74321">
        <ele>46.76</ele>
        <time>2016-07-21T07:30:34Z</time>
      </trkpt>
      <trkpt lat="50.56607" lon="3.74327">
        <ele>48.2</ele>
        <time>2016-07-21T07:30:47Z</time>
      </trkpt>
      <trkpt lat="50.56604" lon="3.74331">
        <ele>46.76</ele>
        <time>2016-07-21T07:30:50Z</time>
      </trkpt>
      <trkpt lat="50.56599" lon="3.74337">
        <ele>47.24</ele>
        <time>2016-07-21T07:30:55Z</time>
      </trkpt>
      <trkpt lat="50.56593" lon="3.74346">
        <ele>48.2</ele>
        <time>2016-07-21T07:31:01Z</time>
      </trkpt>
      <trkpt lat="50.56592" lon="3.74347">
        <ele>46.76</ele>
        <time>2016-07-21T07:31:03Z</time>
      </trkpt>
      <trkpt lat="50.56582" lon="3.74337">
        <ele>48.68</ele>
        <time>2016-07-21T07:31:12Z</time>
      </trkpt>
      <trkpt lat="50.5658" lon="3.74332">
        <ele>47.72</ele>
        <time>2016-07-21T07:31:14Z</time>
      </trkpt>
      <trkpt lat="50.56567" lon="3.74316">
        <ele>47.72</ele>
        <time>2016-07-21T07:31:28Z</time>
      </trkpt>
      <trkpt lat="50.56565" lon="3.74318">
        <ele>45.8</ele>
        <time>2016-07-21T07:31:31Z</time>
      </trkpt>
      <trkpt lat="50.5655" lon="3.74342">
        <ele>47.24</ele>
        <time>2016-07-21T07:31:49Z</time>
      </trkpt>
      <trkpt lat="50.56542" lon="3.74355">
        <ele>48.2</ele>
        <time>2016-07-21T07:32:00Z</time>
      </trkpt>
      <trkpt lat="50.56541" lon="3.74358">
        <ele>46.76</ele>
        <time>2016-07-21T07:32:02Z</time>
      </trkpt>
      <trkpt lat="50.56541" lon="3.74369">
        <ele>48.2</ele>
        <time>2016-07-21T07:32:10Z</time>
      </trkpt>
      <trkpt lat="50.56542" lon="3.74373">
        <ele>46.76</ele>
        <time>2016-07-21T07:32:13Z</time>
      </trkpt>
      <trkpt lat="50.5656" lon="3.74412">
        <ele>46.28</ele>
        <time>2016-07-21T07:32:36Z</time>
      </trkpt>
      <trkpt lat="50.56564" lon="3.74431">
        <ele>46.28</ele>
        <time>2016-07-21T07:32:45Z</time>
      </trkpt>
      <trkpt lat="50.56571" lon="3.74463">
        <ele>45.32</ele>
        <time>2016-07-21T07:33:03Z</time>
      </trkpt>
      <trkpt lat="50.56569" lon="3.74465">
        <ele>47.72</ele>
        <time>2016-07-21T07:33:05Z</time>
      </trkpt>
      <trkpt lat="50.56568" lon="3.74468">
        <ele>45.8</ele>
        <time>2016-07-21T07:33:07Z</time>
      </trkpt>
      <trkpt lat="50.56559" lon="3.7448">
        <ele>47.24</ele>
        <time>2016-07-21T07:33:17Z</time>
      </trkpt>
      <trkpt lat="50.56556" lon="3.74483">
        <ele>45.32</ele>
        <time>2016-07-21T07:33:19Z</time>
      </trkpt>
      <trkpt lat="50.56554" lon="3.74486">
        <ele>45.32</ele>
        <time>2016-07-21T07:33:21Z</time>
      </trkpt>
      <trkpt lat="50.56545" lon="3.745">
        <ele>46.28</ele>
        <time>2016-07-21T07:33:37Z</time>
      </trkpt>
      <trkpt lat="50.56541" lon="3.74496">
        <ele>46.76</ele>
        <time>2016-07-21T07:34:09Z</time>
      </trkpt>
      <trkpt lat="50.5654" lon="3.74495">
        <ele>46.76</ele>
        <time>2016-07-21T07:34:33Z</time>
      </trkpt>
      <trkpt lat="50.5654" lon="3.74498">
        <ele>46.76</ele>
        <time>2016-07-21T07:34:58Z</time>
      </trkpt>
      <trkpt lat="50.56542" lon="3.74503">
        <ele>45.32</ele>
        <time>2016-07-21T07:35:15Z</time>
      </trkpt>
      <trkpt lat="50.56533" lon="3.74506">
        <ele>46.28</ele>
        <time>2016-07-21T07:35:32Z</time>
      </trkpt>
      <trkpt lat="50.5653" lon="3.7451">
        <ele>44.84</ele>
        <time>2016-07-21T07:35:34Z</time>
      </trkpt>
      <trkpt lat="50.56525" lon="3.74521">
        <ele>46.28</ele>
        <time>2016-07-21T07:35:41Z</time>
      </trkpt>
      <trkpt lat="50.56513" lon="3.74536">
        <ele>46.76</ele>
        <time>2016-07-21T07:35:59Z</time>
      </trkpt>
      <trkpt lat="50.5651" lon="3.74532">
        <ele>45.32</ele>
        <time>2016-07-21T07:36:02Z</time>
      </trkpt>
      <trkpt lat="50.56508" lon="3.74526">
        <ele>48.2</ele>
        <time>2016-07-21T07:36:05Z</time>
      </trkpt>
      <trkpt lat="50.56506" lon="3.74519">
        <ele>45.8</ele>
        <time>2016-07-21T07:36:08Z</time>
      </trkpt>
      <trkpt lat="50.56497" lon="3.74504">
        <ele>47.24</ele>
        <time>2016-07-21T07:36:15Z</time>
      </trkpt>
      <trkpt lat="50.56495" lon="3.74498">
        <ele>45.8</ele>
        <time>2016-07-21T07:36:18Z</time>
      </trkpt>
      <trkpt lat="50.56494" lon="3.74492">
        <ele>47.24</ele>
        <time>2016-07-21T07:36:21Z</time>
      </trkpt>
      <trkpt lat="50.5649" lon="3.74479">
        <ele>48.2</ele>
        <time>2016-07-21T07:36:28Z</time>
      </trkpt>
      <trkpt lat="50.56489" lon="3.74476">
        <ele>46.76</ele>
        <time>2016-07-21T07:36:30Z</time>
      </trkpt>
      <trkpt lat="50.56484" lon="3.74462">
        <ele>48.2</ele>
        <time>2016-07-21T07:36:39Z</time>
      </trkpt>
      <trkpt lat="50.56481" lon="3.74456">
        <ele>46.28</ele>
        <time>2016-07-21T07:36:42Z</time>
      </trkpt>
      <trkpt lat="50.56478" lon="3.74448">
        <ele>47.24</ele>
        <time>2016-07-21T07:36:45Z</time>
      </trkpt>
      <trkpt lat="50.56476" lon="3.74441">
        <ele>48.2</ele>
        <time>2016-07-21T07:36:50Z</time>
      </trkpt>
      <trkpt lat="50.56474" lon="3.74437">
        <ele>45.8</ele>
        <time>2016-07-21T07:36:53Z</time>
      </trkpt>
      <trkpt lat="50.56473" lon="3.74434">
        <ele>47.24</ele>
        <time>2016-07-21T07:36:55Z</time>
      </trkpt>
      <trkpt lat="50.56469" lon="3.74425">
        <ele>48.2</ele>
        <time>2016-07-21T07:36:59Z</time>
      </trkpt>
      <trkpt lat="50.56461" lon="3.74407">
        <ele>48.2</ele>
        <time>2016-07-21T07:37:10Z</time>
      </trkpt>
      <trkpt lat="50.56457" lon="3.74402">
        <ele>46.76</ele>
        <time>2016-07-21T07:37:13Z</time>
      </trkpt>
      <trkpt lat="50.56442" lon="3.74376">
        <ele>46.76</ele>
        <time>2016-07-21T07:37:30Z</time>
      </trkpt>
      <trkpt lat="50.56435" lon="3.74364">
        <ele>49.16</ele>
        <time>2016-07-21T07:37:39Z</time>
      </trkpt>
      <trkpt lat="50.56433" lon="3.74361">
        <ele>47.72</ele>
        <time>2016-07-21T07:37:41Z</time>
      </trkpt>
      <trkpt lat="50.56421" lon="3.74338">
        <ele>46.76</ele>
        <time>2016-07-21T07:37:56Z</time>
      </trkpt>
      <trkpt lat="50.56417" lon="3.7433">
        <ele>48.68</ele>
        <time>2016-07-21T07:38:00Z</time>
      </trkpt>
      <trkpt lat="50.56416" lon="3.74326">
        <ele>47.24</ele>
        <time>2016-07-21T07:38:02Z</time>
      </trkpt>
      <trkpt lat="50.56413" lon="3.74324">
        <ele>48.2</ele>
        <time>2016-07-21T07:38:04Z</time>
      </trkpt>
      <trkpt lat="50.56411" lon="3.74321">
        <ele>46.28</ele>
        <time>2016-07-21T07:38:06Z</time>
      </trkpt>
      <trkpt lat="50.5641" lon="3.74319">
        <ele>49.65</ele>
        <time>2016-07-21T07:38:07Z</time>
      </trkpt>
      <trkpt lat="50.56409" lon="3.74318">
        <ele>48.2</ele>
        <time>2016-07-21T07:38:08Z</time>
      </trkpt>
      <trkpt lat="50.56407" lon="3.74314">
        <ele>47.24</ele>
        <time>2016-07-21T07:38:10Z</time>
      </trkpt>
      <trkpt lat="50.56399" lon="3.743">
        <ele>48.68</ele>
        <time>2016-07-21T07:38:20Z</time>
      </trkpt>
      <trkpt lat="50.56398" lon="3.74297">
        <ele>47.24</ele>
        <time>2016-07-21T07:38:22Z</time>
      </trkpt>
      <trkpt lat="50.56395" lon="3.7429">
        <ele>49.65</ele>
        <time>2016-07-21T07:38:26Z</time>
      </trkpt>
      <trkpt lat="50.56386" lon="3.74297">
        <ele>48.2</ele>
        <time>2016-07-21T07:38:36Z</time>
      </trkpt>
      <trkpt lat="50.56382" lon="3.74302">
        <ele>48.2</ele>
        <time>2016-07-21T07:38:40Z</time>
      </trkpt>
      <trkpt lat="50.56378" lon="3.74306">
        <ele>46.76</ele>
        <time>2016-07-21T07:38:43Z</time>
      </trkpt>
      <trkpt lat="50.56372" lon="3.74312">
        <ele>48.2</ele>
        <time>2016-07-21T07:38:48Z</time>
      </trkpt>
      <trkpt lat="50.56367" lon="3.74317">
        <ele>47.24</ele>
        <time>2016-07-21T07:38:52Z</time>
      </trkpt>
      <trkpt lat="50.56357" lon="3.74329">
        <ele>46.28</ele>
        <time>2016-07-21T07:39:03Z</time>
      </trkpt>
      <trkpt lat="50.56339" lon="3.74347">
        <ele>46.76</ele>
        <time>2016-07-21T07:39:20Z</time>
      </trkpt>
      <trkpt lat="50.56324" lon="3.74321">
        <ele>46.28</ele>
        <time>2016-07-21T07:39:38Z</time>
      </trkpt>
      <trkpt lat="50.56322" lon="3.74318">
        <ele>47.72</ele>
        <time>2016-07-21T07:39:40Z</time>
      </trkpt>
      <trkpt lat="50.56321" lon="3.74315">
        <ele>46.28</ele>
        <time>2016-07-21T07:39:42Z</time>
      </trkpt>
      <trkpt lat="50.56318" lon="3.74311">
        <ele>48.2</ele>
        <time>2016-07-21T07:39:46Z</time>
      </trkpt>
      <trkpt lat="50.56317" lon="3.74309">
        <ele>46.28</ele>
        <time>2016-07-21T07:39:49Z</time>
      </trkpt>
      <trkpt lat="50.5631" lon="3.74314">
        <ele>46.28</ele>
        <time>2016-07-21T07:39:58Z</time>
      </trkpt>
      <trkpt lat="50.56306" lon="3.74318">
        <ele>46.28</ele>
        <time>2016-07-21T07:40:01Z</time>
      </trkpt>
      <trkpt lat="50.56288" lon="3.74336">
        <ele>47.24</ele>
        <time>2016-07-21T07:40:16Z</time>
      </trkpt>
      <trkpt lat="50.56286" lon="3.74339">
        <ele>46.28</ele>
        <time>2016-07-21T07:40:18Z</time>
      </trkpt>
      <trkpt lat="50.56277" lon="3.74353">
        <ele>47.24</ele>
        <time>2016-07-21T07:40:28Z</time>
      </trkpt>
      <trkpt lat="50.56271" lon="3.74363">
        <ele>44.84</ele>
        <time>2016-07-21T07:40:34Z</time>
      </trkpt>
      <trkpt lat="50.5625" lon="3.74389">
        <ele>44.84</ele>
        <time>2016-07-21T07:40:55Z</time>
      </trkpt>
      <trkpt lat="50.56245" lon="3.74395">
        <ele>46.28</ele>
        <time>2016-07-21T07:40:59Z</time>
      </trkpt>
      <trkpt lat="50.56241" lon="3.74401">
        <ele>44.36</ele>
        <time>2016-07-21T07:41:03Z</time>
      </trkpt>
      <trkpt lat="50.56236" lon="3.74405">
        <ele>45.8</ele>
        <time>2016-07-21T07:41:07Z</time>
      </trkpt>
      <trkpt lat="50.56228" lon="3.74413">
        <ele>44.36</ele>
        <time>2016-07-21T07:41:15Z</time>
      </trkpt>
      <trkpt lat="50.56219" lon="3.74425">
        <ele>45.32</ele>
        <time>2016-07-21T07:41:24Z</time>
      </trkpt>
      <trkpt lat="50.56213" lon="3.74432">
        <ele>43.88</ele>
        <time>2016-07-21T07:41:31Z</time>
      </trkpt>
      <trkpt lat="50.56211" lon="3.74435">
        <ele>45.8</ele>
        <time>2016-07-21T07:41:33Z</time>
      </trkpt>
      <trkpt lat="50.56202" lon="3.74447">
        <ele>45.8</ele>
        <time>2016-07-21T07:41:43Z</time>
      </trkpt>
      <trkpt lat="50.56197" lon="3.74456">
        <ele>43.88</ele>
        <time>2016-07-21T07:41:50Z</time>
      </trkpt>
      <trkpt lat="50.56196" lon="3.74458">
        <ele>46.28</ele>
        <time>2016-07-21T07:41:52Z</time>
      </trkpt>
      <trkpt lat="50.56196" lon="3.74464">
        <ele>44.36</ele>
        <time>2016-07-21T07:41:55Z</time>
      </trkpt>
      <trkpt lat="50.56197" lon="3.74469">
        <ele>44.36</ele>
        <time>2016-07-21T07:41:57Z</time>
      </trkpt>
      <trkpt lat="50.56203" lon="3.74487">
        <ele>45.32</ele>
        <time>2016-07-21T07:42:04Z</time>
      </trkpt>
      <trkpt lat="50.5621" lon="3.74501">
        <ele>43.88</ele>
        <time>2016-07-21T07:42:19Z</time>
      </trkpt>
      <trkpt lat="50.56214" lon="3.74512">
        <ele>44.84</ele>
        <time>2016-07-21T07:42:26Z</time>
      </trkpt>
      <trkpt lat="50.56232" lon="3.74538">
        <ele>45.32</ele>
        <time>2016-07-21T07:42:44Z</time>
      </trkpt>
      <trkpt lat="50.56253" lon="3.74571">
        <ele>45.32</ele>
        <time>2016-07-21T07:43:03Z</time>
      </trkpt>
      <trkpt lat="50.5627" lon="3.74595">
        <ele>43.88</ele>
        <time>2016-07-21T07:43:19Z</time>
      </trkpt>
      <trkpt lat="50.56272" lon="3.74598">
        <ele>44.84</ele>
        <time>2016-07-21T07:43:21Z</time>
      </trkpt>
      <trkpt lat="50.56279" lon="3.74616">
        <ele>45.32</ele>
        <time>2016-07-21T07:43:31Z</time>
      </trkpt>
      <trkpt lat="50.56295" lon="3.74652">
        <ele>43.88</ele>
        <time>2016-07-21T07:43:52Z</time>
      </trkpt>
      <trkpt lat="50.56297" lon="3.74658">
        <ele>45.32</ele>
        <time>2016-07-21T07:43:55Z</time>
      </trkpt>
      <trkpt lat="50.563" lon="3.74666">
        <ele>43.88</ele>
        <time>2016-07-21T07:43:59Z</time>
      </trkpt>
      <trkpt lat="50.56304" lon="3.74676">
        <ele>45.8</ele>
        <time>2016-07-21T07:44:05Z</time>
      </trkpt>
      <trkpt lat="50.56308" lon="3.747">
        <ele>45.8</ele>
        <time>2016-07-21T07:44:20Z</time>
      </trkpt>
      <trkpt lat="50.563" lon="3.74705">
        <ele>46.76</ele>
        <time>2016-07-21T07:44:24Z</time>
      </trkpt>
      <trkpt lat="50.56294" lon="3.74711">
        <ele>45.32</ele>
        <time>2016-07-21T07:44:28Z</time>
      </trkpt>
      <trkpt lat="50.56278" lon="3.74735">
        <ele>45.32</ele>
        <time>2016-07-21T07:44:47Z</time>
      </trkpt>
      <trkpt lat="50.56277" lon="3.74736">
        <ele>45.32</ele>
        <time>2016-07-21T07:44:48Z</time>
      </trkpt>
      <trkpt lat="50.56256" lon="3.74752">
        <ele>42.92</ele>
        <time>2016-07-21T07:45:08Z</time>
      </trkpt>
      <trkpt lat="50.56247" lon="3.74761">
        <ele>42.92</ele>
        <time>2016-07-21T07:45:17Z</time>
      </trkpt>
      <trkpt lat="50.56232" lon="3.74776">
        <ele>42.44</ele>
        <time>2016-07-21T07:45:29Z</time>
      </trkpt>
      <trkpt lat="50.56223" lon="3.74788">
        <ele>43.88</ele>
        <time>2016-07-21T07:45:38Z</time>
      </trkpt>
      <trkpt lat="50.56219" lon="3.74792">
        <ele>41.47</ele>
        <time>2016-07-21T07:45:41Z</time>
      </trkpt>
      <trkpt lat="50.56217" lon="3.74795">
        <ele>43.4</ele>
        <time>2016-07-21T07:45:43Z</time>
      </trkpt>
      <trkpt lat="50.56215" lon="3.74798">
        <ele>41.47</ele>
        <time>2016-07-21T07:45:45Z</time>
      </trkpt>
      <trkpt lat="50.56206" lon="3.74809">
        <ele>42.92</ele>
        <time>2016-07-21T07:45:54Z</time>
      </trkpt>
      <trkpt lat="50.56202" lon="3.74815">
        <ele>41.47</ele>
        <time>2016-07-21T07:45:59Z</time>
      </trkpt>
      <trkpt lat="50.56199" lon="3.7482">
        <ele>42.92</ele>
        <time>2016-07-21T07:46:03Z</time>
      </trkpt>
      <trkpt lat="50.56196" lon="3.74824">
        <ele>40.99</ele>
        <time>2016-07-21T07:46:06Z</time>
      </trkpt>
      <trkpt lat="50.56194" lon="3.74827">
        <ele>42.92</ele>
        <time>2016-07-21T07:46:08Z</time>
      </trkpt>
      <trkpt lat="50.5619" lon="3.74831">
        <ele>40.03</ele>
        <time>2016-07-21T07:46:11Z</time>
      </trkpt>
      <trkpt lat="50.56186" lon="3.74836">
        <ele>41.47</ele>
        <time>2016-07-21T07:46:15Z</time>
      </trkpt>
      <trkpt lat="50.56176" lon="3.74849">
        <ele>40.51</ele>
        <time>2016-07-21T07:46:25Z</time>
      </trkpt>
      <trkpt lat="50.56169" lon="3.7486">
        <ele>41.95</ele>
        <time>2016-07-21T07:46:32Z</time>
      </trkpt>
      <trkpt lat="50.56165" lon="3.74864">
        <ele>40.51</ele>
        <time>2016-07-21T07:46:36Z</time>
      </trkpt>
      <trkpt lat="50.56162" lon="3.74868">
        <ele>41.47</ele>
        <time>2016-07-21T07:46:39Z</time>
      </trkpt>
      <trkpt lat="50.56154" lon="3.74887">
        <ele>40.51</ele>
        <time>2016-07-21T07:46:49Z</time>
      </trkpt>
      <trkpt lat="50.56157" lon="3.74903">
        <ele>41.95</ele>
        <time>2016-07-21T07:46:57Z</time>
      </trkpt>
      <trkpt lat="50.56156" lon="3.74908">
        <ele>40.03</ele>
        <time>2016-07-21T07:47:01Z</time>
      </trkpt>
      <trkpt lat="50.56152" lon="3.74915">
        <ele>41.95</ele>
        <time>2016-07-21T07:47:06Z</time>
      </trkpt>
      <trkpt lat="50.56151" lon="3.74917">
        <ele>41.95</ele>
        <time>2016-07-21T07:47:07Z</time>
      </trkpt>
      <trkpt lat="50.56143" lon="3.74931">
        <ele>40.03</ele>
        <time>2016-07-21T07:47:15Z</time>
      </trkpt>
      <trkpt lat="50.56141" lon="3.74933">
        <ele>41.95</ele>
        <time>2016-07-21T07:47:17Z</time>
      </trkpt>
      <trkpt lat="50.56135" lon="3.74944">
        <ele>40.51</ele>
        <time>2016-07-21T07:47:25Z</time>
      </trkpt>
      <trkpt lat="50.56126" lon="3.74949">
        <ele>40.51</ele>
        <time>2016-07-21T07:47:35Z</time>
      </trkpt>
      <trkpt lat="50.56125" lon="3.74953">
        <ele>41.95</ele>
        <time>2016-07-21T07:47:37Z</time>
      </trkpt>
      <trkpt lat="50.56116" lon="3.74979">
        <ele>42.92</ele>
        <time>2016-07-21T07:47:48Z</time>
      </trkpt>
      <trkpt lat="50.56114" lon="3.74985">
        <ele>40.99</ele>
        <time>2016-07-21T07:47:51Z</time>
      </trkpt>
      <trkpt lat="50.56107" lon="3.75">
        <ele>43.4</ele>
        <time>2016-07-21T07:47:59Z</time>
      </trkpt>
      <trkpt lat="50.56104" lon="3.75005">
        <ele>41.47</ele>
        <time>2016-07-21T07:48:02Z</time>
      </trkpt>
      <trkpt lat="50.56099" lon="3.75014">
        <ele>40.99</ele>
        <time>2016-07-21T07:48:10Z</time>
      </trkpt>
      <trkpt lat="50.56097" lon="3.75015">
        <ele>43.4</ele>
        <time>2016-07-21T07:48:12Z</time>
      </trkpt>
      <trkpt lat="50.56095" lon="3.7502">
        <ele>41.47</ele>
        <time>2016-07-21T07:48:15Z</time>
      </trkpt>
      <trkpt lat="50.56087" lon="3.7503">
        <ele>41.47</ele>
        <time>2016-07-21T07:48:24Z</time>
      </trkpt>
      <trkpt lat="50.56072" lon="3.75063">
        <ele>43.4</ele>
        <time>2016-07-21T07:48:41Z</time>
      </trkpt>
      <trkpt lat="50.56071" lon="3.75065">
        <ele>43.4</ele>
        <time>2016-07-21T07:48:42Z</time>
      </trkpt>
      <trkpt lat="50.56069" lon="3.75068">
        <ele>41.47</ele>
        <time>2016-07-21T07:48:44Z</time>
      </trkpt>
      <trkpt lat="50.56068" lon="3.75074">
        <ele>42.92</ele>
        <time>2016-07-21T07:48:48Z</time>
      </trkpt>
      <trkpt lat="50.56062" lon="3.75079">
        <ele>41.95</ele>
        <time>2016-07-21T07:48:56Z</time>
      </trkpt>
      <trkpt lat="50.56055" lon="3.75067">
        <ele>41.47</ele>
        <time>2016-07-21T07:49:06Z</time>
      </trkpt>
      <trkpt lat="50.56053" lon="3.75065">
        <ele>42.44</ele>
        <time>2016-07-21T07:49:08Z</time>
      </trkpt>
      <trkpt lat="50.56049" lon="3.75064">
        <ele>40.99</ele>
        <time>2016-07-21T07:49:11Z</time>
      </trkpt>
      <trkpt lat="50.56045" lon="3.75066">
        <ele>42.92</ele>
        <time>2016-07-21T07:49:14Z</time>
      </trkpt>
      <trkpt lat="50.56042" lon="3.75068">
        <ele>42.44</ele>
        <time>2016-07-21T07:49:16Z</time>
      </trkpt>
      <trkpt lat="50.56037" lon="3.75076">
        <ele>44.36</ele>
        <time>2016-07-21T07:49:21Z</time>
      </trkpt>
      <trkpt lat="50.56035" lon="3.75079">
        <ele>42.92</ele>
        <time>2016-07-21T07:49:23Z</time>
      </trkpt>
      <trkpt lat="50.56023" lon="3.75095">
        <ele>44.36</ele>
        <time>2016-07-21T07:49:35Z</time>
      </trkpt>
      <trkpt lat="50.56005" lon="3.75115">
        <ele>44.84</ele>
        <time>2016-07-21T07:49:51Z</time>
      </trkpt>
      <trkpt lat="50.55984" lon="3.75142">
        <ele>44.84</ele>
        <time>2016-07-21T07:50:09Z</time>
      </trkpt>
      <trkpt lat="50.55981" lon="3.75146">
        <ele>43.4</ele>
        <time>2016-07-21T07:50:12Z</time>
      </trkpt>
      <trkpt lat="50.55955" lon="3.75166">
        <ele>44.36</ele>
        <time>2016-07-21T07:50:36Z</time>
      </trkpt>
      <trkpt lat="50.55946" lon="3.7517">
        <ele>44.84</ele>
        <time>2016-07-21T07:50:43Z</time>
      </trkpt>
      <trkpt lat="50.55942" lon="3.75174">
        <ele>43.4</ele>
        <time>2016-07-21T07:50:46Z</time>
      </trkpt>
      <trkpt lat="50.5594" lon="3.75178">
        <ele>46.28</ele>
        <time>2016-07-21T07:50:48Z</time>
      </trkpt>
      <trkpt lat="50.55938" lon="3.75182">
        <ele>43.88</ele>
        <time>2016-07-21T07:50:50Z</time>
      </trkpt>
      <trkpt lat="50.55933" lon="3.75194">
        <ele>45.32</ele>
        <time>2016-07-21T07:50:55Z</time>
      </trkpt>
      <trkpt lat="50.55927" lon="3.75215">
        <ele>46.28</ele>
        <time>2016-07-21T07:51:05Z</time>
      </trkpt>
      <trkpt lat="50.55925" lon="3.75218">
        <ele>44.36</ele>
        <time>2016-07-21T07:51:07Z</time>
      </trkpt>
      <trkpt lat="50.55918" lon="3.75237">
        <ele>46.28</ele>
        <time>2016-07-21T07:51:20Z</time>
      </trkpt>
      <trkpt lat="50.55916" lon="3.75241">
        <ele>44.36</ele>
        <time>2016-07-21T07:51:22Z</time>
      </trkpt>
      <trkpt lat="50.55906" lon="3.7527">
        <ele>46.28</ele>
        <time>2016-07-21T07:51:35Z</time>
      </trkpt>
      <trkpt lat="50.55897" lon="3.75292">
        <ele>43.88</ele>
        <time>2016-07-21T07:51:48Z</time>
      </trkpt>
      <trkpt lat="50.55893" lon="3.75306">
        <ele>43.4</ele>
        <time>2016-07-21T07:51:55Z</time>
      </trkpt>
      <trkpt lat="50.55892" lon="3.75312">
        <ele>45.32</ele>
        <time>2016-07-21T07:51:58Z</time>
      </trkpt>
      <trkpt lat="50.55886" lon="3.75327">
        <ele>44.84</ele>
        <time>2016-07-21T07:52:06Z</time>
      </trkpt>
      <trkpt lat="50.5588" lon="3.75344">
        <ele>47.72</ele>
        <time>2016-07-21T07:52:16Z</time>
      </trkpt>
      <trkpt lat="50.5587" lon="3.75378">
        <ele>46.76</ele>
        <time>2016-07-21T07:52:33Z</time>
      </trkpt>
      <trkpt lat="50.55866" lon="3.75389">
        <ele>48.2</ele>
        <time>2016-07-21T07:52:40Z</time>
      </trkpt>
      <trkpt lat="50.55863" lon="3.75396">
        <ele>46.28</ele>
        <time>2016-07-21T07:52:44Z</time>
      </trkpt>
      <trkpt lat="50.55863" lon="3.75398">
        <ele>49.16</ele>
        <time>2016-07-21T07:52:45Z</time>
      </trkpt>
      <trkpt lat="50.55863" lon="3.754">
        <ele>49.16</ele>
        <time>2016-07-21T07:52:46Z</time>
      </trkpt>
      <trkpt lat="50.55863" lon="3.75404">
        <ele>47.72</ele>
        <time>2016-07-21T07:52:48Z</time>
      </trkpt>
      <trkpt lat="50.55864" lon="3.75414">
        <ele>47.24</ele>
        <time>2016-07-21T07:52:54Z</time>
      </trkpt>
      <trkpt lat="50.55869" lon="3.7542">
        <ele>47.24</ele>
        <time>2016-07-21T07:52:58Z</time>
      </trkpt>
      <trkpt lat="50.55879" lon="3.75434">
        <ele>46.76</ele>
        <time>2016-07-21T07:53:10Z</time>
      </trkpt>
      <trkpt lat="50.55885" lon="3.75443">
        <ele>45.8</ele>
        <time>2016-07-21T07:53:17Z</time>
      </trkpt>
      <trkpt lat="50.55887" lon="3.75445">
        <ele>48.2</ele>
        <time>2016-07-21T07:53:19Z</time>
      </trkpt>
      <trkpt lat="50.5589" lon="3.75448">
        <ele>46.76</ele>
        <time>2016-07-21T07:53:23Z</time>
      </trkpt>
      <trkpt lat="50.55893" lon="3.75457">
        <ele>46.28</ele>
        <time>2016-07-21T07:53:50Z</time>
      </trkpt>
      <trkpt lat="50.55915" lon="3.75479">
        <ele>46.76</ele>
        <time>2016-07-21T07:54:07Z</time>
      </trkpt>
      <trkpt lat="50.55923" lon="3.75485">
        <ele>46.76</ele>
        <time>2016-07-21T07:54:13Z</time>
      </trkpt>
      <trkpt lat="50.55932" lon="3.75493">
        <ele>44.84</ele>
        <time>2016-07-21T07:54:20Z</time>
      </trkpt>
      <trkpt lat="50.55949" lon="3.75512">
        <ele>44.36</ele>
        <time>2016-07-21T07:54:36Z</time>
      </trkpt>
      <trkpt lat="50.5595" lon="3.75515">
        <ele>47.24</ele>
        <time>2016-07-21T07:54:38Z</time>
      </trkpt>
      <trkpt lat="50.55953" lon="3.7552">
        <ele>45.32</ele>
        <time>2016-07-21T07:54:41Z</time>
      </trkpt>
      <trkpt lat="50.55967" lon="3.75541">
        <ele>44.36</ele>
        <time>2016-07-21T07:54:54Z</time>
      </trkpt>
      <trkpt lat="50.5597" lon="3.75545">
        <ele>47.24</ele>
        <time>2016-07-21T07:54:56Z</time>
      </trkpt>
      <trkpt lat="50.5598" lon="3.75555">
        <ele>46.28</ele>
        <time>2016-07-21T07:55:05Z</time>
      </trkpt>
      <trkpt lat="50.55988" lon="3.75562">
        <ele>45.32</ele>
        <time>2016-07-21T07:55:11Z</time>
      </trkpt>
      <trkpt lat="50.55991" lon="3.75566">
        <ele>46.76</ele>
        <time>2016-07-21T07:55:14Z</time>
      </trkpt>
      <trkpt lat="50.55996" lon="3.75575">
        <ele>45.32</ele>
        <time>2016-07-21T07:55:20Z</time>
      </trkpt>
      <trkpt lat="50.55997" lon="3.75576">
        <ele>46.76</ele>
        <time>2016-07-21T07:55:22Z</time>
      </trkpt>
      <trkpt lat="50.56001" lon="3.75584">
        <ele>47.72</ele>
        <time>2016-07-21T07:55:30Z</time>
      </trkpt>
      <trkpt lat="50.56024" lon="3.75607">
        <ele>47.24</ele>
        <time>2016-07-21T07:55:50Z</time>
      </trkpt>
      <trkpt lat="50.56029" lon="3.75611">
        <ele>45.32</ele>
        <time>2016-07-21T07:55:54Z</time>
      </trkpt>
      <trkpt lat="50.56054" lon="3.75635">
        <ele>46.76</ele>
        <time>2016-07-21T07:56:17Z</time>
      </trkpt>
      <trkpt lat="50.56067" lon="3.7565">
        <ele>47.72</ele>
        <time>2016-07-21T07:56:29Z</time>
      </trkpt>
      <trkpt lat="50.5607" lon="3.75652">
        <ele>45.8</ele>
        <time>2016-07-21T07:56:31Z</time>
      </trkpt>
      <trkpt lat="50.56093" lon="3.75684">
        <ele>45.32</ele>
        <time>2016-07-21T07:56:52Z</time>
      </trkpt>
      <trkpt lat="50.56099" lon="3.75691">
        <ele>47.24</ele>
        <time>2016-07-21T07:56:57Z</time>
      </trkpt>
      <trkpt lat="50.56123" lon="3.75716">
        <ele>45.8</ele>
        <time>2016-07-21T07:57:20Z</time>
      </trkpt>
      <trkpt lat="50.5615" lon="3.75755">
        <ele>47.24</ele>
        <time>2016-07-21T07:57:47Z</time>
      </trkpt>
      <trkpt lat="50.5616" lon="3.75768">
        <ele>46.76</ele>
        <time>2016-07-21T07:57:56Z</time>
      </trkpt>
      <trkpt lat="50.56165" lon="3.75773">
        <ele>47.24</ele>
        <time>2016-07-21T07:58:00Z</time>
      </trkpt>
      <trkpt lat="50.56167" lon="3.75775">
        <ele>45.8</ele>
        <time>2016-07-21T07:58:02Z</time>
      </trkpt>
      <trkpt lat="50.56192" lon="3.75804">
        <ele>46.28</ele>
        <time>2016-07-21T07:58:25Z</time>
      </trkpt>
      <trkpt lat="50.56203" lon="3.75825">
        <ele>44.84</ele>
        <time>2016-07-21T07:58:39Z</time>
      </trkpt>
      <trkpt lat="50.56208" lon="3.75834">
        <ele>47.24</ele>
        <time>2016-07-21T07:58:44Z</time>
      </trkpt>
      <trkpt lat="50.56212" lon="3.75841">
        <ele>44.36</ele>
        <time>2016-07-21T07:58:48Z</time>
      </trkpt>
      <trkpt lat="50.56221" lon="3.7585">
        <ele>47.24</ele>
        <time>2016-07-21T07:58:56Z</time>
      </trkpt>
      <trkpt lat="50.56221" lon="3.75862">
        <ele>48.2</ele>
        <time>2016-07-21T07:59:11Z</time>
      </trkpt>
      <trkpt lat="50.56219" lon="3.75866">
        <ele>46.28</ele>
        <time>2016-07-21T07:59:14Z</time>
      </trkpt>
      <trkpt lat="50.56218" lon="3.7587">
        <ele>47.72</ele>
        <time>2016-07-21T07:59:17Z</time>
      </trkpt>
      <trkpt lat="50.56214" lon="3.7588">
        <ele>46.28</ele>
        <time>2016-07-21T07:59:24Z</time>
      </trkpt>
      <trkpt lat="50.56208" lon="3.75897">
        <ele>45.32</ele>
        <time>2016-07-21T07:59:38Z</time>
      </trkpt>
      <trkpt lat="50.56212" lon="3.75906">
        <ele>44.36</ele>
        <time>2016-07-21T07:59:58Z</time>
      </trkpt>
      <trkpt lat="50.56218" lon="3.75925">
        <ele>44.84</ele>
        <time>2016-07-21T08:00:15Z</time>
      </trkpt>
      <trkpt lat="50.56217" lon="3.75935">
        <ele>44.36</ele>
        <time>2016-07-21T08:00:20Z</time>
      </trkpt>
      <trkpt lat="50.56216" lon="3.75938">
        <ele>42.44</ele>
        <time>2016-07-21T08:00:22Z</time>
      </trkpt>
      <trkpt lat="50.56214" lon="3.75951">
        <ele>45.32</ele>
        <time>2016-07-21T08:00:28Z</time>
      </trkpt>
      <trkpt lat="50.56212" lon="3.75963">
        <ele>43.4</ele>
        <time>2016-07-21T08:00:33Z</time>
      </trkpt>
      <trkpt lat="50.56211" lon="3.75971">
        <ele>44.84</ele>
        <time>2016-07-21T08:00:37Z</time>
      </trkpt>
      <trkpt lat="50.56211" lon="3.75976">
        <ele>43.4</ele>
        <time>2016-07-21T08:00:39Z</time>
      </trkpt>
      <trkpt lat="50.56208" lon="3.75987">
        <ele>44.84</ele>
        <time>2016-07-21T08:00:44Z</time>
      </trkpt>
      <trkpt lat="50.56208" lon="3.75991">
        <ele>42.92</ele>
        <time>2016-07-21T08:00:46Z</time>
      </trkpt>
      <trkpt lat="50.56206" lon="3.76">
        <ele>44.84</ele>
        <time>2016-07-21T08:00:50Z</time>
      </trkpt>
      <trkpt lat="50.56205" lon="3.76003">
        <ele>43.4</ele>
        <time>2016-07-21T08:00:52Z</time>
      </trkpt>
      <trkpt lat="50.562" lon="3.76021">
        <ele>45.8</ele>
        <time>2016-07-21T08:01:01Z</time>
      </trkpt>
      <trkpt lat="50.56199" lon="3.76025">
        <ele>44.36</ele>
        <time>2016-07-21T08:01:03Z</time>
      </trkpt>
      <trkpt lat="50.56194" lon="3.76059">
        <ele>44.36</ele>
        <time>2016-07-21T08:01:18Z</time>
      </trkpt>
      <trkpt lat="50.56188" lon="3.76092">
        <ele>43.4</ele>
        <time>2016-07-21T08:01:35Z</time>
      </trkpt>
      <trkpt lat="50.56183" lon="3.76116">
        <ele>45.32</ele>
        <time>2016-07-21T08:01:46Z</time>
      </trkpt>
      <trkpt lat="50.5617" lon="3.76165">
        <ele>43.88</ele>
        <time>2016-07-21T08:02:09Z</time>
      </trkpt>
      <trkpt lat="50.56151" lon="3.76198">
        <ele>44.36</ele>
        <time>2016-07-21T08:02:32Z</time>
      </trkpt>
      <trkpt lat="50.56147" lon="3.76205">
        <ele>45.8</ele>
        <time>2016-07-21T08:02:36Z</time>
      </trkpt>
      <trkpt lat="50.56143" lon="3.76212">
        <ele>43.88</ele>
        <time>2016-07-21T08:02:40Z</time>
      </trkpt>
      <trkpt lat="50.56137" lon="3.76222">
        <ele>45.32</ele>
        <time>2016-07-21T08:02:46Z</time>
      </trkpt>
      <trkpt lat="50.56135" lon="3.76227">
        <ele>43.88</ele>
        <time>2016-07-21T08:02:49Z</time>
      </trkpt>
      <trkpt lat="50.56134" lon="3.76229">
        <ele>45.8</ele>
        <time>2016-07-21T08:02:51Z</time>
      </trkpt>
      <trkpt lat="50.56116" lon="3.76254">
        <ele>46.28</ele>
        <time>2016-07-21T08:03:08Z</time>
      </trkpt>
      <trkpt lat="50.56113" lon="3.76259">
        <ele>44.84</ele>
        <time>2016-07-21T08:03:11Z</time>
      </trkpt>
      <trkpt lat="50.56105" lon="3.76271">
        <ele>44.36</ele>
        <time>2016-07-21T08:03:19Z</time>
      </trkpt>
      <trkpt lat="50.56097" lon="3.76284">
        <ele>46.28</ele>
        <time>2016-07-21T08:03:27Z</time>
      </trkpt>
      <trkpt lat="50.56093" lon="3.7629">
        <ele>43.88</ele>
        <time>2016-07-21T08:03:31Z</time>
      </trkpt>
      <trkpt lat="50.56083" lon="3.76316">
        <ele>44.36</ele>
        <time>2016-07-21T08:03:45Z</time>
      </trkpt>
      <trkpt lat="50.56093" lon="3.76333">
        <ele>45.32</ele>
        <time>2016-07-21T08:03:53Z</time>
      </trkpt>
      <trkpt lat="50.5612" lon="3.76363">
        <ele>44.84</ele>
        <time>2016-07-21T08:04:13Z</time>
      </trkpt>
      <trkpt lat="50.56126" lon="3.76369">
        <ele>46.28</ele>
        <time>2016-07-21T08:04:18Z</time>
      </trkpt>
      <trkpt lat="50.56133" lon="3.76378">
        <ele>44.84</ele>
        <time>2016-07-21T08:04:26Z</time>
      </trkpt>
      <trkpt lat="50.56143" lon="3.7639">
        <ele>46.76</ele>
        <time>2016-07-21T08:04:37Z</time>
      </trkpt>
      <trkpt lat="50.56146" lon="3.76393">
        <ele>45.32</ele>
        <time>2016-07-21T08:04:40Z</time>
      </trkpt>
      <trkpt lat="50.56163" lon="3.76412">
        <ele>46.76</ele>
        <time>2016-07-21T08:04:53Z</time>
      </trkpt>
      <trkpt lat="50.56165" lon="3.76415">
        <ele>45.32</ele>
        <time>2016-07-21T08:04:55Z</time>
      </trkpt>
      <trkpt lat="50.56193" lon="3.76441">
        <ele>47.24</ele>
        <time>2016-07-21T08:05:15Z</time>
      </trkpt>
      <trkpt lat="50.56196" lon="3.76443">
        <ele>45.32</ele>
        <time>2016-07-21T08:05:17Z</time>
      </trkpt>
      <trkpt lat="50.56211" lon="3.76457">
        <ele>45.8</ele>
        <time>2016-07-21T08:05:31Z</time>
      </trkpt>
      <trkpt lat="50.56213" lon="3.76459">
        <ele>46.76</ele>
        <time>2016-07-21T08:05:33Z</time>
      </trkpt>
      <trkpt lat="50.56215" lon="3.76461">
        <ele>45.32</ele>
        <time>2016-07-21T08:05:35Z</time>
      </trkpt>
      <trkpt lat="50.56227" lon="3.76474">
        <ele>43.88</ele>
        <time>2016-07-21T08:05:46Z</time>
      </trkpt>
      <trkpt lat="50.56228" lon="3.76476">
        <ele>45.32</ele>
        <time>2016-07-21T08:05:47Z</time>
      </trkpt>
      <trkpt lat="50.56235" lon="3.76483">
        <ele>45.32</ele>
        <time>2016-07-21T08:05:52Z</time>
      </trkpt>
      <trkpt lat="50.56248" lon="3.76497">
        <ele>46.28</ele>
        <time>2016-07-21T08:06:02Z</time>
      </trkpt>
      <trkpt lat="50.56254" lon="3.76503">
        <ele>44.36</ele>
        <time>2016-07-21T08:06:07Z</time>
      </trkpt>
      <trkpt lat="50.56258" lon="3.76507">
        <ele>46.76</ele>
        <time>2016-07-21T08:06:10Z</time>
      </trkpt>
      <trkpt lat="50.56275" lon="3.76532">
        <ele>46.76</ele>
        <time>2016-07-21T08:06:28Z</time>
      </trkpt>
      <trkpt lat="50.56277" lon="3.76534">
        <ele>45.32</ele>
        <time>2016-07-21T08:06:30Z</time>
      </trkpt>
      <trkpt lat="50.56291" lon="3.76557">
        <ele>46.76</ele>
        <time>2016-07-21T08:06:48Z</time>
      </trkpt>
      <trkpt lat="50.56294" lon="3.76561">
        <ele>45.32</ele>
        <time>2016-07-21T08:06:50Z</time>
      </trkpt>
      <trkpt lat="50.56306" lon="3.76587">
        <ele>44.36</ele>
        <time>2016-07-21T08:07:04Z</time>
      </trkpt>
      <trkpt lat="50.56307" lon="3.76591">
        <ele>46.28</ele>
        <time>2016-07-21T08:07:06Z</time>
      </trkpt>
      <trkpt lat="50.56309" lon="3.76596">
        <ele>44.84</ele>
        <time>2016-07-21T08:07:09Z</time>
      </trkpt>
      <trkpt lat="50.56299" lon="3.76619">
        <ele>48.2</ele>
        <time>2016-07-21T08:07:23Z</time>
      </trkpt>
      <trkpt lat="50.56294" lon="3.76628">
        <ele>46.28</ele>
        <time>2016-07-21T08:07:28Z</time>
      </trkpt>
      <trkpt lat="50.56288" lon="3.76638">
        <ele>47.72</ele>
        <time>2016-07-21T08:07:35Z</time>
      </trkpt>
      <trkpt lat="50.56281" lon="3.76646">
        <ele>46.28</ele>
        <time>2016-07-21T08:07:40Z</time>
      </trkpt>
      <trkpt lat="50.5627" lon="3.76659">
        <ele>48.2</ele>
        <time>2016-07-21T08:07:49Z</time>
      </trkpt>
      <trkpt lat="50.5625" lon="3.76686">
        <ele>48.68</ele>
        <time>2016-07-21T08:08:07Z</time>
      </trkpt>
      <trkpt lat="50.56247" lon="3.76688">
        <ele>46.76</ele>
        <time>2016-07-21T08:08:09Z</time>
      </trkpt>
      <trkpt lat="50.56245" lon="3.76691">
        <ele>47.72</ele>
        <time>2016-07-21T08:08:11Z</time>
      </trkpt>
      <trkpt lat="50.5624" lon="3.76699">
        <ele>48.2</ele>
        <time>2016-07-21T08:08:17Z</time>
      </trkpt>
      <trkpt lat="50.56228" lon="3.76717">
        <ele>48.2</ele>
        <time>2016-07-21T08:08:29Z</time>
      </trkpt>
      <trkpt lat="50.56211" lon="3.7674">
        <ele>48.2</ele>
        <time>2016-07-21T08:08:46Z</time>
      </trkpt>
      <trkpt lat="50.56204" lon="3.76752">
        <ele>46.76</ele>
        <time>2016-07-21T08:08:53Z</time>
      </trkpt>
      <trkpt lat="50.562" lon="3.76757">
        <ele>48.2</ele>
        <time>2016-07-21T08:08:56Z</time>
      </trkpt>
      <trkpt lat="50.56185" lon="3.76785">
        <ele>46.76</ele>
        <time>2016-07-21T08:09:14Z</time>
      </trkpt>
      <trkpt lat="50.56177" lon="3.76823">
        <ele>46.76</ele>
        <time>2016-07-21T08:09:31Z</time>
      </trkpt>
      <trkpt lat="50.56172" lon="3.76859">
        <ele>46.76</ele>
        <time>2016-07-21T08:09:50Z</time>
      </trkpt>
      <trkpt lat="50.56171" lon="3.76874">
        <ele>47.72</ele>
        <time>2016-07-21T08:09:56Z</time>
      </trkpt>
      <trkpt lat="50.5617" lon="3.76883">
        <ele>45.8</ele>
        <time>2016-07-21T08:10:00Z</time>
      </trkpt>
      <trkpt lat="50.56169" lon="3.76892">
        <ele>47.24</ele>
        <time>2016-07-21T08:10:06Z</time>
      </trkpt>
      <trkpt lat="50.56164" lon="3.76914">
        <ele>45.32</ele>
        <time>2016-07-21T08:10:16Z</time>
      </trkpt>
      <trkpt lat="50.56164" lon="3.76916">
        <ele>48.68</ele>
        <time>2016-07-21T08:10:17Z</time>
      </trkpt>
      <trkpt lat="50.56163" lon="3.76918">
        <ele>46.76</ele>
        <time>2016-07-21T08:10:18Z</time>
      </trkpt>
      <trkpt lat="50.56156" lon="3.76942">
        <ele>46.28</ele>
        <time>2016-07-21T08:10:32Z</time>
      </trkpt>
      <trkpt lat="50.56154" lon="3.7695">
        <ele>47.72</ele>
        <time>2016-07-21T08:10:37Z</time>
      </trkpt>
      <trkpt lat="50.56155" lon="3.76955">
        <ele>46.76</ele>
        <time>2016-07-21T08:10:40Z</time>
      </trkpt>
      <trkpt lat="50.56156" lon="3.76956">
        <ele>46.76</ele>
        <time>2016-07-21T08:10:41Z</time>
      </trkpt>
      <trkpt lat="50.56159" lon="3.76962">
        <ele>46.76</ele>
        <time>2016-07-21T08:10:45Z</time>
      </trkpt>
      <trkpt lat="50.56164" lon="3.76965">
        <ele>48.2</ele>
        <time>2016-07-21T08:10:49Z</time>
      </trkpt>
      <trkpt lat="50.56172" lon="3.76965">
        <ele>46.28</ele>
        <time>2016-07-21T08:10:55Z</time>
      </trkpt>
      <trkpt lat="50.56184" lon="3.76971">
        <ele>47.72</ele>
        <time>2016-07-21T08:11:06Z</time>
      </trkpt>
      <trkpt lat="50.56182" lon="3.7698">
        <ele>46.28</ele>
        <time>2016-07-21T08:11:12Z</time>
      </trkpt>
      <trkpt lat="50.56178" lon="3.77002">
        <ele>47.24</ele>
        <time>2016-07-21T08:11:21Z</time>
      </trkpt>
      <trkpt lat="50.56177" lon="3.7702">
        <ele>45.8</ele>
        <time>2016-07-21T08:11:29Z</time>
      </trkpt>
      <trkpt lat="50.56176" lon="3.77025">
        <ele>46.76</ele>
        <time>2016-07-21T08:11:31Z</time>
      </trkpt>
      <trkpt lat="50.56175" lon="3.77037">
        <ele>45.32</ele>
        <time>2016-07-21T08:11:36Z</time>
      </trkpt>
      <trkpt lat="50.56175" lon="3.77042">
        <ele>46.76</ele>
        <time>2016-07-21T08:11:38Z</time>
      </trkpt>
      <trkpt lat="50.56172" lon="3.77055">
        <ele>46.28</ele>
        <time>2016-07-21T08:11:44Z</time>
      </trkpt>
      <trkpt lat="50.56166" lon="3.77071">
        <ele>48.2</ele>
        <time>2016-07-21T08:11:55Z</time>
      </trkpt>
      <trkpt lat="50.56164" lon="3.77076">
        <ele>46.76</ele>
        <time>2016-07-21T08:11:58Z</time>
      </trkpt>
      <trkpt lat="50.56154" lon="3.77104">
        <ele>48.2</ele>
        <time>2016-07-21T08:12:12Z</time>
      </trkpt>
      <trkpt lat="50.56152" lon="3.77111">
        <ele>46.28</ele>
        <time>2016-07-21T08:12:16Z</time>
      </trkpt>
      <trkpt lat="50.56147" lon="3.77122">
        <ele>47.72</ele>
        <time>2016-07-21T08:12:22Z</time>
      </trkpt>
      <trkpt lat="50.56145" lon="3.77128">
        <ele>46.28</ele>
        <time>2016-07-21T08:12:25Z</time>
      </trkpt>
      <trkpt lat="50.56142" lon="3.77134">
        <ele>48.2</ele>
        <time>2016-07-21T08:12:29Z</time>
      </trkpt>
      <trkpt lat="50.5614" lon="3.77138">
        <ele>46.28</ele>
        <time>2016-07-21T08:12:32Z</time>
      </trkpt>
      <trkpt lat="50.56137" lon="3.77144">
        <ele>48.2</ele>
        <time>2016-07-21T08:12:36Z</time>
      </trkpt>
      <trkpt lat="50.56133" lon="3.77157">
        <ele>48.2</ele>
        <time>2016-07-21T08:12:43Z</time>
      </trkpt>
      <trkpt lat="50.56129" lon="3.77165">
        <ele>46.76</ele>
        <time>2016-07-21T08:12:47Z</time>
      </trkpt>
      <trkpt lat="50.56121" lon="3.77186">
        <ele>48.68</ele>
        <time>2016-07-21T08:12:58Z</time>
      </trkpt>
      <trkpt lat="50.56116" lon="3.77199">
        <ele>47.24</ele>
        <time>2016-07-21T08:13:07Z</time>
      </trkpt>
      <trkpt lat="50.56114" lon="3.77203">
        <ele>48.68</ele>
        <time>2016-07-21T08:13:09Z</time>
      </trkpt>
      <trkpt lat="50.56111" lon="3.77212">
        <ele>47.24</ele>
        <time>2016-07-21T08:13:14Z</time>
      </trkpt>
      <trkpt lat="50.56107" lon="3.77217">
        <ele>48.2</ele>
        <time>2016-07-21T08:13:17Z</time>
      </trkpt>
      <trkpt lat="50.56092" lon="3.77248">
        <ele>48.2</ele>
        <time>2016-07-21T08:13:36Z</time>
      </trkpt>
      <trkpt lat="50.56075" lon="3.77284">
        <ele>48.68</ele>
        <time>2016-07-21T08:13:56Z</time>
      </trkpt>
      <trkpt lat="50.56063" lon="3.77317">
        <ele>49.16</ele>
        <time>2016-07-21T08:14:12Z</time>
      </trkpt>
      <trkpt lat="50.56052" lon="3.77344">
        <ele>49.16</ele>
        <time>2016-07-21T08:14:27Z</time>
      </trkpt>
      <trkpt lat="50.56042" lon="3.77381">
        <ele>49.16</ele>
        <time>2016-07-21T08:14:45Z</time>
      </trkpt>
      <trkpt lat="50.56043" lon="3.7739">
        <ele>49.16</ele>
        <time>2016-07-21T08:14:49Z</time>
      </trkpt>
      <trkpt lat="50.56044" lon="3.77391">
        <ele>49.16</ele>
        <time>2016-07-21T08:14:50Z</time>
      </trkpt>
      <trkpt lat="50.56045" lon="3.77392">
        <ele>49.16</ele>
        <time>2016-07-21T08:14:51Z</time>
      </trkpt>
      <trkpt lat="50.56046" lon="3.77392">
        <ele>49.16</ele>
        <time>2016-07-21T08:14:52Z</time>
      </trkpt>
      <trkpt lat="50.56047" lon="3.77393">
        <ele>49.16</ele>
        <time>2016-07-21T08:14:53Z</time>
      </trkpt>
      <trkpt lat="50.56048" lon="3.77393">
        <ele>49.16</ele>
        <time>2016-07-21T08:14:54Z</time>
      </trkpt>
      <trkpt lat="50.56063" lon="3.77414">
        <ele>49.16</ele>
        <time>2016-07-21T08:15:11Z</time>
      </trkpt>
      <trkpt lat="50.56087" lon="3.77446">
        <ele>47.72</ele>
        <time>2016-07-21T08:15:32Z</time>
      </trkpt>
      <trkpt lat="50.56101" lon="3.77459">
        <ele>47.72</ele>
        <time>2016-07-21T08:15:43Z</time>
      </trkpt>
      <trkpt lat="50.56102" lon="3.77459">
        <ele>47.72</ele>
        <time>2016-07-21T08:15:44Z</time>
      </trkpt>
      <trkpt lat="50.56104" lon="3.7746">
        <ele>47.72</ele>
        <time>2016-07-21T08:15:45Z</time>
      </trkpt>
      <trkpt lat="50.56122" lon="3.77475">
        <ele>47.72</ele>
        <time>2016-07-21T08:16:01Z</time>
      </trkpt>
      <trkpt lat="50.56126" lon="3.7748">
        <ele>47.72</ele>
        <time>2016-07-21T08:16:04Z</time>
      </trkpt>
      <trkpt lat="50.56129" lon="3.77486">
        <ele>47.72</ele>
        <time>2016-07-21T08:16:07Z</time>
      </trkpt>
      <trkpt lat="50.5613" lon="3.77487">
        <ele>47.72</ele>
        <time>2016-07-21T08:16:08Z</time>
      </trkpt>
      <trkpt lat="50.56131" lon="3.77488">
        <ele>47.72</ele>
        <time>2016-07-21T08:16:09Z</time>
      </trkpt>
      <trkpt lat="50.56133" lon="3.77489">
        <ele>47.72</ele>
        <time>2016-07-21T08:16:10Z</time>
      </trkpt>
      <trkpt lat="50.56134" lon="3.7749">
        <ele>47.24</ele>
        <time>2016-07-21T08:16:11Z</time>
      </trkpt>
      <trkpt lat="50.56151" lon="3.77511">
        <ele>47.72</ele>
        <time>2016-07-21T08:16:23Z</time>
      </trkpt>
      <trkpt lat="50.5617" lon="3.77539">
        <ele>47.24</ele>
        <time>2016-07-21T08:16:40Z</time>
      </trkpt>
      <trkpt lat="50.56184" lon="3.77558">
        <ele>47.24</ele>
        <time>2016-07-21T08:16:55Z</time>
      </trkpt>
      <trkpt lat="50.56199" lon="3.77582">
        <ele>47.24</ele>
        <time>2016-07-21T08:17:10Z</time>
      </trkpt>
      <trkpt lat="50.56203" lon="3.77589">
        <ele>47.72</ele>
        <time>2016-07-21T08:17:15Z</time>
      </trkpt>
      <trkpt lat="50.56216" lon="3.77611">
        <ele>47.72</ele>
        <time>2016-07-21T08:17:28Z</time>
      </trkpt>
      <trkpt lat="50.56228" lon="3.77625">
        <ele>47.24</ele>
        <time>2016-07-21T08:17:43Z</time>
      </trkpt>
      <trkpt lat="50.56234" lon="3.77619">
        <ele>47.24</ele>
        <time>2016-07-21T08:17:59Z</time>
      </trkpt>
      <trkpt lat="50.56234" lon="3.77619">
        <ele>47.72</ele>
        <time>2016-07-21T08:18:22Z</time>
      </trkpt>
      <trkpt lat="50.56236" lon="3.77622">
        <ele>47.72</ele>
        <time>2016-07-21T08:18:45Z</time>
      </trkpt>
      <trkpt lat="50.56241" lon="3.77628">
        <ele>47.72</ele>
        <time>2016-07-21T08:18:56Z</time>
      </trkpt>
      <trkpt lat="50.5625" lon="3.77648">
        <ele>47.24</ele>
        <time>2016-07-21T08:19:07Z</time>
      </trkpt>
      <trkpt lat="50.56259" lon="3.77667">
        <ele>47.24</ele>
        <time>2016-07-21T08:19:17Z</time>
      </trkpt>
      <trkpt lat="50.5626" lon="3.77667">
        <ele>47.24</ele>
        <time>2016-07-21T08:19:18Z</time>
      </trkpt>
      <trkpt lat="50.56261" lon="3.77667">
        <ele>47.24</ele>
        <time>2016-07-21T08:19:19Z</time>
      </trkpt>
      <trkpt lat="50.56262" lon="3.77669">
        <ele>47.24</ele>
        <time>2016-07-21T08:19:20Z</time>
      </trkpt>
      <trkpt lat="50.56268" lon="3.77687">
        <ele>46.76</ele>
        <time>2016-07-21T08:19:34Z</time>
      </trkpt>
      <trkpt lat="50.56278" lon="3.77724">
        <ele>46.28</ele>
        <time>2016-07-21T08:19:49Z</time>
      </trkpt>
      <trkpt lat="50.56287" lon="3.7776">
        <ele>46.28</ele>
        <time>2016-07-21T08:20:03Z</time>
      </trkpt>
      <trkpt lat="50.56297" lon="3.77789">
        <ele>45.8</ele>
        <time>2016-07-21T08:20:18Z</time>
      </trkpt>
      <trkpt lat="50.56307" lon="3.77807">
        <ele>45.8</ele>
        <time>2016-07-21T08:20:29Z</time>
      </trkpt>
      <trkpt lat="50.56321" lon="3.77823">
        <ele>45.32</ele>
        <time>2016-07-21T08:20:43Z</time>
      </trkpt>
      <trkpt lat="50.56322" lon="3.77825">
        <ele>45.32</ele>
        <time>2016-07-21T08:20:44Z</time>
      </trkpt>
      <trkpt lat="50.56324" lon="3.77827">
        <ele>45.32</ele>
        <time>2016-07-21T08:20:45Z</time>
      </trkpt>
      <trkpt lat="50.56347" lon="3.77846">
        <ele>44.84</ele>
        <time>2016-07-21T08:21:03Z</time>
      </trkpt>
      <trkpt lat="50.56358" lon="3.77857">
        <ele>43.88</ele>
        <time>2016-07-21T08:21:13Z</time>
      </trkpt>
      <trkpt lat="50.5636" lon="3.77857">
        <ele>43.88</ele>
        <time>2016-07-21T08:21:14Z</time>
      </trkpt>
      <trkpt lat="50.56361" lon="3.77859">
        <ele>43.88</ele>
        <time>2016-07-21T08:21:15Z</time>
      </trkpt>
      <trkpt lat="50.56362" lon="3.7786">
        <ele>43.88</ele>
        <time>2016-07-21T08:21:16Z</time>
      </trkpt>
      <trkpt lat="50.56363" lon="3.77861">
        <ele>43.88</ele>
        <time>2016-07-21T08:21:17Z</time>
      </trkpt>
      <trkpt lat="50.56383" lon="3.77877">
        <ele>43.88</ele>
        <time>2016-07-21T08:21:31Z</time>
      </trkpt>
      <trkpt lat="50.56385" lon="3.77877">
        <ele>43.88</ele>
        <time>2016-07-21T08:21:32Z</time>
      </trkpt>
      <trkpt lat="50.56386" lon="3.77877">
        <ele>43.88</ele>
        <time>2016-07-21T08:21:33Z</time>
      </trkpt>
      <trkpt lat="50.56388" lon="3.77878">
        <ele>43.88</ele>
        <time>2016-07-21T08:21:34Z</time>
      </trkpt>
      <trkpt lat="50.56389" lon="3.77879">
        <ele>43.88</ele>
        <time>2016-07-21T08:21:35Z</time>
      </trkpt>
      <trkpt lat="50.56406" lon="3.77898">
        <ele>43.4</ele>
        <time>2016-07-21T08:21:51Z</time>
      </trkpt>
      <trkpt lat="50.5642" lon="3.77922">
        <ele>43.4</ele>
        <time>2016-07-21T08:22:06Z</time>
      </trkpt>
      <trkpt lat="50.56424" lon="3.77927">
        <ele>43.4</ele>
        <time>2016-07-21T08:22:09Z</time>
      </trkpt>
      <trkpt lat="50.56425" lon="3.77928">
        <ele>43.4</ele>
        <time>2016-07-21T08:22:10Z</time>
      </trkpt>
      <trkpt lat="50.56429" lon="3.77929">
        <ele>42.92</ele>
        <time>2016-07-21T08:22:13Z</time>
      </trkpt>
      <trkpt lat="50.5643" lon="3.77928">
        <ele>43.4</ele>
        <time>2016-07-21T08:22:14Z</time>
      </trkpt>
      <trkpt lat="50.56431" lon="3.77924">
        <ele>43.4</ele>
        <time>2016-07-21T08:22:16Z</time>
      </trkpt>
      <trkpt lat="50.56435" lon="3.77916">
        <ele>42.92</ele>
        <time>2016-07-21T08:22:20Z</time>
      </trkpt>
      <trkpt lat="50.56437" lon="3.77913">
        <ele>42.92</ele>
        <time>2016-07-21T08:22:22Z</time>
      </trkpt>
      <trkpt lat="50.56438" lon="3.77912">
        <ele>42.92</ele>
        <time>2016-07-21T08:22:23Z</time>
      </trkpt>
      <trkpt lat="50.56446" lon="3.77895">
        <ele>42.92</ele>
        <time>2016-07-21T08:22:34Z</time>
      </trkpt>
      <trkpt lat="50.56451" lon="3.77886">
        <ele>42.92</ele>
        <time>2016-07-21T08:22:39Z</time>
      </trkpt>
      <trkpt lat="50.56452" lon="3.77883">
        <ele>42.92</ele>
        <time>2016-07-21T08:22:40Z</time>
      </trkpt>
      <trkpt lat="50.56457" lon="3.77874">
        <ele>42.92</ele>
        <time>2016-07-21T08:22:45Z</time>
      </trkpt>
      <trkpt lat="50.56459" lon="3.77866">
        <ele>42.92</ele>
        <time>2016-07-21T08:22:49Z</time>
      </trkpt>
      <trkpt lat="50.56459" lon="3.77864">
        <ele>42.92</ele>
        <time>2016-07-21T08:22:50Z</time>
      </trkpt>
      <trkpt lat="50.5646" lon="3.77862">
        <ele>42.92</ele>
        <time>2016-07-21T08:22:51Z</time>
      </trkpt>
      <trkpt lat="50.5646" lon="3.7786">
        <ele>42.92</ele>
        <time>2016-07-21T08:22:52Z</time>
      </trkpt>
      <trkpt lat="50.56461" lon="3.77857">
        <ele>42.92</ele>
        <time>2016-07-21T08:22:53Z</time>
      </trkpt>
      <trkpt lat="50.56463" lon="3.77856">
        <ele>42.92</ele>
        <time>2016-07-21T08:22:54Z</time>
      </trkpt>
      <trkpt lat="50.56464" lon="3.77853">
        <ele>42.92</ele>
        <time>2016-07-21T08:22:55Z</time>
      </trkpt>
      <trkpt lat="50.56465" lon="3.77851">
        <ele>42.92</ele>
        <time>2016-07-21T08:22:56Z</time>
      </trkpt>
      <trkpt lat="50.56466" lon="3.77849">
        <ele>42.92</ele>
        <time>2016-07-21T08:22:57Z</time>
      </trkpt>
      <trkpt lat="50.56466" lon="3.77847">
        <ele>42.92</ele>
        <time>2016-07-21T08:22:58Z</time>
      </trkpt>
      <trkpt lat="50.56468" lon="3.77846">
        <ele>42.92</ele>
        <time>2016-07-21T08:22:59Z</time>
      </trkpt>
      <trkpt lat="50.56469" lon="3.77845">
        <ele>42.44</ele>
        <time>2016-07-21T08:23:00Z</time>
      </trkpt>
      <trkpt lat="50.56473" lon="3.77834">
        <ele>41.95</ele>
        <time>2016-07-21T08:23:06Z</time>
      </trkpt>
      <trkpt lat="50.56476" lon="3.77825">
        <ele>42.44</ele>
        <time>2016-07-21T08:23:11Z</time>
      </trkpt>
      <trkpt lat="50.56477" lon="3.77823">
        <ele>42.44</ele>
        <time>2016-07-21T08:23:12Z</time>
      </trkpt>
      <trkpt lat="50.56483" lon="3.7781">
        <ele>42.44</ele>
        <time>2016-07-21T08:23:19Z</time>
      </trkpt>
      <trkpt lat="50.56492" lon="3.77784">
        <ele>42.44</ele>
        <time>2016-07-21T08:23:32Z</time>
      </trkpt>
      <trkpt lat="50.56504" lon="3.77759">
        <ele>42.44</ele>
        <time>2016-07-21T08:23:47Z</time>
      </trkpt>
      <trkpt lat="50.56505" lon="3.77757">
        <ele>42.44</ele>
        <time>2016-07-21T08:23:48Z</time>
      </trkpt>
      <trkpt lat="50.5651" lon="3.77744">
        <ele>42.44</ele>
        <time>2016-07-21T08:23:55Z</time>
      </trkpt>
      <trkpt lat="50.56519" lon="3.7772">
        <ele>42.44</ele>
        <time>2016-07-21T08:24:09Z</time>
      </trkpt>
      <trkpt lat="50.5652" lon="3.77718">
        <ele>42.44</ele>
        <time>2016-07-21T08:24:10Z</time>
      </trkpt>
      <trkpt lat="50.56521" lon="3.77716">
        <ele>42.44</ele>
        <time>2016-07-21T08:24:11Z</time>
      </trkpt>
      <trkpt lat="50.56522" lon="3.77714">
        <ele>42.44</ele>
        <time>2016-07-21T08:24:12Z</time>
      </trkpt>
      <trkpt lat="50.56523" lon="3.77712">
        <ele>42.44</ele>
        <time>2016-07-21T08:24:13Z</time>
      </trkpt>
      <trkpt lat="50.56523" lon="3.7771">
        <ele>42.44</ele>
        <time>2016-07-21T08:24:14Z</time>
      </trkpt>
      <trkpt lat="50.56524" lon="3.77708">
        <ele>42.44</ele>
        <time>2016-07-21T08:24:15Z</time>
      </trkpt>
      <trkpt lat="50.56524" lon="3.77706">
        <ele>42.44</ele>
        <time>2016-07-21T08:24:16Z</time>
      </trkpt>
      <trkpt lat="50.56526" lon="3.77695">
        <ele>42.44</ele>
        <time>2016-07-21T08:24:21Z</time>
      </trkpt>
      <trkpt lat="50.56526" lon="3.77693">
        <ele>42.44</ele>
        <time>2016-07-21T08:24:22Z</time>
      </trkpt>
      <trkpt lat="50.56526" lon="3.77691">
        <ele>42.44</ele>
        <time>2016-07-21T08:24:23Z</time>
      </trkpt>
      <trkpt lat="50.56526" lon="3.77689">
        <ele>42.44</ele>
        <time>2016-07-21T08:24:24Z</time>
      </trkpt>
      <trkpt lat="50.56526" lon="3.77687">
        <ele>42.44</ele>
        <time>2016-07-21T08:24:25Z</time>
      </trkpt>
      <trkpt lat="50.56525" lon="3.77685">
        <ele>42.44</ele>
        <time>2016-07-21T08:24:26Z</time>
      </trkpt>
      <trkpt lat="50.56525" lon="3.77682">
        <ele>42.44</ele>
        <time>2016-07-21T08:24:27Z</time>
      </trkpt>
      <trkpt lat="50.56525" lon="3.7768">
        <ele>42.44</ele>
        <time>2016-07-21T08:24:28Z</time>
      </trkpt>
      <trkpt lat="50.56526" lon="3.77674">
        <ele>42.44</ele>
        <time>2016-07-21T08:24:31Z</time>
      </trkpt>
      <trkpt lat="50.56526" lon="3.77672">
        <ele>42.44</ele>
        <time>2016-07-21T08:24:32Z</time>
      </trkpt>
      <trkpt lat="50.56531" lon="3.77649">
        <ele>42.44</ele>
        <time>2016-07-21T08:24:44Z</time>
      </trkpt>
      <trkpt lat="50.56532" lon="3.77642">
        <ele>42.44</ele>
        <time>2016-07-21T08:24:47Z</time>
      </trkpt>
      <trkpt lat="50.56537" lon="3.77614">
        <ele>42.44</ele>
        <time>2016-07-21T08:25:00Z</time>
      </trkpt>
      <trkpt lat="50.56537" lon="3.77609">
        <ele>42.44</ele>
        <time>2016-07-21T08:25:02Z</time>
      </trkpt>
      <trkpt lat="50.56537" lon="3.77606">
        <ele>41.95</ele>
        <time>2016-07-21T08:25:03Z</time>
      </trkpt>
      <trkpt lat="50.56538" lon="3.77604">
        <ele>42.44</ele>
        <time>2016-07-21T08:25:04Z</time>
      </trkpt>
      <trkpt lat="50.5654" lon="3.77595">
        <ele>41.95</ele>
        <time>2016-07-21T08:25:08Z</time>
      </trkpt>
      <trkpt lat="50.56541" lon="3.77589">
        <ele>41.95</ele>
        <time>2016-07-21T08:25:11Z</time>
      </trkpt>
      <trkpt lat="50.56545" lon="3.77562">
        <ele>41.95</ele>
        <time>2016-07-21T08:25:25Z</time>
      </trkpt>
      <trkpt lat="50.56551" lon="3.77543">
        <ele>41.95</ele>
        <time>2016-07-21T08:25:35Z</time>
      </trkpt>
      <trkpt lat="50.56556" lon="3.77513">
        <ele>41.95</ele>
        <time>2016-07-21T08:25:48Z</time>
      </trkpt>
      <trkpt lat="50.56561" lon="3.77491">
        <ele>41.95</ele>
        <time>2016-07-21T08:26:00Z</time>
      </trkpt>
      <trkpt lat="50.56564" lon="3.77487">
        <ele>41.95</ele>
        <time>2016-07-21T08:26:05Z</time>
      </trkpt>
      <trkpt lat="50.56565" lon="3.77486">
        <ele>41.95</ele>
        <time>2016-07-21T08:26:06Z</time>
      </trkpt>
      <trkpt lat="50.56571" lon="3.77474">
        <ele>41.95</ele>
        <time>2016-07-21T08:26:17Z</time>
      </trkpt>
      <trkpt lat="50.56572" lon="3.77472">
        <ele>41.95</ele>
        <time>2016-07-21T08:26:18Z</time>
      </trkpt>
      <trkpt lat="50.56575" lon="3.7747">
        <ele>41.95</ele>
        <time>2016-07-21T08:26:19Z</time>
      </trkpt>
      <trkpt lat="50.56576" lon="3.77468">
        <ele>41.95</ele>
        <time>2016-07-21T08:26:20Z</time>
      </trkpt>
      <trkpt lat="50.56586" lon="3.77457">
        <ele>41.95</ele>
        <time>2016-07-21T08:26:25Z</time>
      </trkpt>
      <trkpt lat="50.56587" lon="3.77455">
        <ele>41.95</ele>
        <time>2016-07-21T08:26:26Z</time>
      </trkpt>
      <trkpt lat="50.56589" lon="3.77454">
        <ele>40.99</ele>
        <time>2016-07-21T08:26:27Z</time>
      </trkpt>
      <trkpt lat="50.56608" lon="3.77433">
        <ele>42.44</ele>
        <time>2016-07-21T08:26:43Z</time>
      </trkpt>
      <trkpt lat="50.56626" lon="3.77406">
        <ele>42.44</ele>
        <time>2016-07-21T08:27:00Z</time>
      </trkpt>
      <trkpt lat="50.56638" lon="3.77387">
        <ele>42.92</ele>
        <time>2016-07-21T08:27:14Z</time>
      </trkpt>
      <trkpt lat="50.56656" lon="3.77358">
        <ele>42.92</ele>
        <time>2016-07-21T08:27:31Z</time>
      </trkpt>
      <trkpt lat="50.56668" lon="3.77342">
        <ele>42.92</ele>
        <time>2016-07-21T08:27:44Z</time>
      </trkpt>
      <trkpt lat="50.56692" lon="3.77315">
        <ele>42.92</ele>
        <time>2016-07-21T08:28:04Z</time>
      </trkpt>
      <trkpt lat="50.56704" lon="3.77299">
        <ele>42.92</ele>
        <time>2016-07-21T08:28:15Z</time>
      </trkpt>
      <trkpt lat="50.56704" lon="3.77297">
        <ele>42.92</ele>
        <time>2016-07-21T08:28:16Z</time>
      </trkpt>
      <trkpt lat="50.56705" lon="3.77296">
        <ele>42.92</ele>
        <time>2016-07-21T08:28:17Z</time>
      </trkpt>
      <trkpt lat="50.56718" lon="3.77274">
        <ele>43.4</ele>
        <time>2016-07-21T08:28:33Z</time>
      </trkpt>
      <trkpt lat="50.56719" lon="3.77272">
        <ele>43.4</ele>
        <time>2016-07-21T08:28:34Z</time>
      </trkpt>
      <trkpt lat="50.5672" lon="3.77269">
        <ele>43.4</ele>
        <time>2016-07-21T08:28:35Z</time>
      </trkpt>
      <trkpt lat="50.56729" lon="3.77251">
        <ele>43.4</ele>
        <time>2016-07-21T08:28:45Z</time>
      </trkpt>
      <trkpt lat="50.5673" lon="3.77249">
        <ele>43.4</ele>
        <time>2016-07-21T08:28:46Z</time>
      </trkpt>
      <trkpt lat="50.56731" lon="3.77248">
        <ele>43.4</ele>
        <time>2016-07-21T08:28:47Z</time>
      </trkpt>
      <trkpt lat="50.56732" lon="3.77246">
        <ele>43.4</ele>
        <time>2016-07-21T08:28:48Z</time>
      </trkpt>
      <trkpt lat="50.56733" lon="3.77245">
        <ele>43.4</ele>
        <time>2016-07-21T08:28:49Z</time>
      </trkpt>
      <trkpt lat="50.56735" lon="3.77243">
        <ele>43.4</ele>
        <time>2016-07-21T08:28:50Z</time>
      </trkpt>
      <trkpt lat="50.56736" lon="3.77242">
        <ele>43.4</ele>
        <time>2016-07-21T08:28:51Z</time>
      </trkpt>
      <trkpt lat="50.56737" lon="3.7724">
        <ele>43.4</ele>
        <time>2016-07-21T08:28:52Z</time>
      </trkpt>
      <trkpt lat="50.56738" lon="3.77238">
        <ele>43.4</ele>
        <time>2016-07-21T08:28:53Z</time>
      </trkpt>
      <trkpt lat="50.56745" lon="3.77227">
        <ele>43.4</ele>
        <time>2016-07-21T08:29:00Z</time>
      </trkpt>
      <trkpt lat="50.56747" lon="3.77226">
        <ele>43.4</ele>
        <time>2016-07-21T08:29:01Z</time>
      </trkpt>
      <trkpt lat="50.56748" lon="3.77224">
        <ele>43.4</ele>
        <time>2016-07-21T08:29:02Z</time>
      </trkpt>
      <trkpt lat="50.5675" lon="3.77221">
        <ele>43.4</ele>
        <time>2016-07-21T08:29:04Z</time>
      </trkpt>
      <trkpt lat="50.5675" lon="3.77219">
        <ele>43.4</ele>
        <time>2016-07-21T08:29:05Z</time>
      </trkpt>
      <trkpt lat="50.56751" lon="3.77218">
        <ele>43.4</ele>
        <time>2016-07-21T08:29:06Z</time>
      </trkpt>
      <trkpt lat="50.56752" lon="3.77216">
        <ele>43.4</ele>
        <time>2016-07-21T08:29:07Z</time>
      </trkpt>
      <trkpt lat="50.56753" lon="3.77215">
        <ele>43.4</ele>
        <time>2016-07-21T08:29:08Z</time>
      </trkpt>
      <trkpt lat="50.56754" lon="3.77214">
        <ele>43.4</ele>
        <time>2016-07-21T08:29:09Z</time>
      </trkpt>
      <trkpt lat="50.56755" lon="3.77214">
        <ele>43.4</ele>
        <time>2016-07-21T08:29:10Z</time>
      </trkpt>
      <trkpt lat="50.56756" lon="3.77212">
        <ele>43.4</ele>
        <time>2016-07-21T08:29:11Z</time>
      </trkpt>
      <trkpt lat="50.56757" lon="3.7721">
        <ele>43.4</ele>
        <time>2016-07-21T08:29:12Z</time>
      </trkpt>
      <trkpt lat="50.56757" lon="3.77208">
        <ele>43.4</ele>
        <time>2016-07-21T08:29:13Z</time>
      </trkpt>
      <trkpt lat="50.56758" lon="3.77206">
        <ele>43.4</ele>
        <time>2016-07-21T08:29:14Z</time>
      </trkpt>
      <trkpt lat="50.5676" lon="3.77205">
        <ele>43.4</ele>
        <time>2016-07-21T08:29:15Z</time>
      </trkpt>
      <trkpt lat="50.56761" lon="3.77203">
        <ele>43.4</ele>
        <time>2016-07-21T08:29:16Z</time>
      </trkpt>
      <trkpt lat="50.56762" lon="3.77201">
        <ele>43.4</ele>
        <time>2016-07-21T08:29:17Z</time>
      </trkpt>
      <trkpt lat="50.56763" lon="3.772">
        <ele>43.4</ele>
        <time>2016-07-21T08:29:18Z</time>
      </trkpt>
      <trkpt lat="50.56764" lon="3.77199">
        <ele>43.4</ele>
        <time>2016-07-21T08:29:19Z</time>
      </trkpt>
      <trkpt lat="50.56765" lon="3.77197">
        <ele>43.4</ele>
        <time>2016-07-21T08:29:20Z</time>
      </trkpt>
      <trkpt lat="50.56767" lon="3.77196">
        <ele>43.4</ele>
        <time>2016-07-21T08:29:21Z</time>
      </trkpt>
      <trkpt lat="50.56782" lon="3.77175">
        <ele>42.44</ele>
        <time>2016-07-21T08:29:38Z</time>
      </trkpt>
      <trkpt lat="50.56786" lon="3.77172">
        <ele>42.44</ele>
        <time>2016-07-21T08:29:43Z</time>
      </trkpt>
      <trkpt lat="50.56787" lon="3.77173">
        <ele>42.44</ele>
        <time>2016-07-21T08:29:44Z</time>
      </trkpt>
      <trkpt lat="50.56789" lon="3.77173">
        <ele>42.44</ele>
        <time>2016-07-21T08:29:45Z</time>
      </trkpt>
      <trkpt lat="50.5679" lon="3.77173">
        <ele>42.44</ele>
        <time>2016-07-21T08:29:46Z</time>
      </trkpt>
      <trkpt lat="50.56791" lon="3.77172">
        <ele>42.44</ele>
        <time>2016-07-21T08:29:47Z</time>
      </trkpt>
      <trkpt lat="50.56793" lon="3.7717">
        <ele>42.44</ele>
        <time>2016-07-21T08:29:48Z</time>
      </trkpt>
      <trkpt lat="50.56793" lon="3.77168">
        <ele>42.44</ele>
        <time>2016-07-21T08:29:49Z</time>
      </trkpt>
      <trkpt lat="50.56795" lon="3.77166">
        <ele>42.44</ele>
        <time>2016-07-21T08:29:50Z</time>
      </trkpt>
      <trkpt lat="50.56795" lon="3.77164">
        <ele>42.44</ele>
        <time>2016-07-21T08:29:51Z</time>
      </trkpt>
      <trkpt lat="50.56797" lon="3.77158">
        <ele>42.44</ele>
        <time>2016-07-21T08:29:54Z</time>
      </trkpt>
      <trkpt lat="50.56799" lon="3.77156">
        <ele>42.44</ele>
        <time>2016-07-21T08:29:56Z</time>
      </trkpt>
      <trkpt lat="50.56801" lon="3.77155">
        <ele>42.44</ele>
        <time>2016-07-21T08:29:57Z</time>
      </trkpt>
      <trkpt lat="50.56802" lon="3.77154">
        <ele>42.44</ele>
        <time>2016-07-21T08:29:58Z</time>
      </trkpt>
      <trkpt lat="50.56803" lon="3.77154">
        <ele>42.44</ele>
        <time>2016-07-21T08:29:59Z</time>
      </trkpt>
      <trkpt lat="50.56815" lon="3.77144">
        <ele>42.44</ele>
        <time>2016-07-21T08:30:10Z</time>
      </trkpt>
      <trkpt lat="50.56817" lon="3.77143">
        <ele>42.44</ele>
        <time>2016-07-21T08:30:12Z</time>
      </trkpt>
      <trkpt lat="50.56818" lon="3.77141">
        <ele>42.44</ele>
        <time>2016-07-21T08:30:14Z</time>
      </trkpt>
      <trkpt lat="50.56819" lon="3.7714">
        <ele>42.44</ele>
        <time>2016-07-21T08:30:15Z</time>
      </trkpt>
      <trkpt lat="50.56835" lon="3.77127">
        <ele>42.44</ele>
        <time>2016-07-21T08:30:29Z</time>
      </trkpt>
      <trkpt lat="50.56858" lon="3.77115">
        <ele>42.44</ele>
        <time>2016-07-21T08:30:44Z</time>
      </trkpt>
      <trkpt lat="50.56867" lon="3.77111">
        <ele>41.95</ele>
        <time>2016-07-21T08:30:51Z</time>
      </trkpt>
      <trkpt lat="50.56868" lon="3.77111">
        <ele>41.95</ele>
        <time>2016-07-21T08:30:52Z</time>
      </trkpt>
      <trkpt lat="50.56871" lon="3.7711">
        <ele>41.95</ele>
        <time>2016-07-21T08:30:54Z</time>
      </trkpt>
      <trkpt lat="50.56886" lon="3.77101">
        <ele>41.95</ele>
        <time>2016-07-21T08:31:07Z</time>
      </trkpt>
      <trkpt lat="50.56888" lon="3.771">
        <ele>41.47</ele>
        <time>2016-07-21T08:31:08Z</time>
      </trkpt>
      <trkpt lat="50.5689" lon="3.77099">
        <ele>41.47</ele>
        <time>2016-07-21T08:31:09Z</time>
      </trkpt>
      <trkpt lat="50.56893" lon="3.77096">
        <ele>41.47</ele>
        <time>2016-07-21T08:31:12Z</time>
      </trkpt>
      <trkpt lat="50.56907" lon="3.7709">
        <ele>40.99</ele>
        <time>2016-07-21T08:31:23Z</time>
      </trkpt>
      <trkpt lat="50.56908" lon="3.77084">
        <ele>40.99</ele>
        <time>2016-07-21T08:31:26Z</time>
      </trkpt>
      <trkpt lat="50.56912" lon="3.7708">
        <ele>40.99</ele>
        <time>2016-07-21T08:31:29Z</time>
      </trkpt>
      <trkpt lat="50.56913" lon="3.77077">
        <ele>40.99</ele>
        <time>2016-07-21T08:31:30Z</time>
      </trkpt>
      <trkpt lat="50.56913" lon="3.77075">
        <ele>40.99</ele>
        <time>2016-07-21T08:31:31Z</time>
      </trkpt>
      <trkpt lat="50.56914" lon="3.77073">
        <ele>40.99</ele>
        <time>2016-07-21T08:31:32Z</time>
      </trkpt>
      <trkpt lat="50.56914" lon="3.7707">
        <ele>40.99</ele>
        <time>2016-07-21T08:31:33Z</time>
      </trkpt>
      <trkpt lat="50.56927" lon="3.7704">
        <ele>40.99</ele>
        <time>2016-07-21T08:31:49Z</time>
      </trkpt>
      <trkpt lat="50.56931" lon="3.77032">
        <ele>40.99</ele>
        <time>2016-07-21T08:31:53Z</time>
      </trkpt>
      <trkpt lat="50.56932" lon="3.7703">
        <ele>40.99</ele>
        <time>2016-07-21T08:31:54Z</time>
      </trkpt>
      <trkpt lat="50.56933" lon="3.77029">
        <ele>40.99</ele>
        <time>2016-07-21T08:31:55Z</time>
      </trkpt>
      <trkpt lat="50.56947" lon="3.77">
        <ele>40.99</ele>
        <time>2016-07-21T08:32:12Z</time>
      </trkpt>
      <trkpt lat="50.5695" lon="3.76993">
        <ele>40.99</ele>
        <time>2016-07-21T08:32:17Z</time>
      </trkpt>
      <trkpt lat="50.56957" lon="3.76982">
        <ele>40.99</ele>
        <time>2016-07-21T08:32:27Z</time>
      </trkpt>
      <trkpt lat="50.56959" lon="3.76976">
        <ele>41.95</ele>
        <time>2016-07-21T08:32:31Z</time>
      </trkpt>
      <trkpt lat="50.5696" lon="3.76974">
        <ele>41.95</ele>
        <time>2016-07-21T08:32:32Z</time>
      </trkpt>
      <trkpt lat="50.56965" lon="3.76964">
        <ele>41.95</ele>
        <time>2016-07-21T08:32:38Z</time>
      </trkpt>
      <trkpt lat="50.56969" lon="3.76952">
        <ele>41.95</ele>
        <time>2016-07-21T08:32:44Z</time>
      </trkpt>
      <trkpt lat="50.5697" lon="3.7695">
        <ele>41.95</ele>
        <time>2016-07-21T08:32:45Z</time>
      </trkpt>
      <trkpt lat="50.56971" lon="3.76948">
        <ele>41.95</ele>
        <time>2016-07-21T08:32:46Z</time>
      </trkpt>
      <trkpt lat="50.56972" lon="3.76945">
        <ele>41.95</ele>
        <time>2016-07-21T08:32:48Z</time>
      </trkpt>
      <trkpt lat="50.56988" lon="3.76923">
        <ele>41.95</ele>
        <time>2016-07-21T08:33:01Z</time>
      </trkpt>
      <trkpt lat="50.56994" lon="3.7691">
        <ele>41.95</ele>
        <time>2016-07-21T08:33:09Z</time>
      </trkpt>
      <trkpt lat="50.57001" lon="3.76879">
        <ele>41.95</ele>
        <time>2016-07-21T08:33:24Z</time>
      </trkpt>
      <trkpt lat="50.57003" lon="3.76875">
        <ele>40.51</ele>
        <time>2016-07-21T08:33:26Z</time>
      </trkpt>
      <trkpt lat="50.57021" lon="3.76843">
        <ele>40.51</ele>
        <time>2016-07-21T08:33:43Z</time>
      </trkpt>
      <trkpt lat="50.57034" lon="3.76819">
        <ele>40.51</ele>
        <time>2016-07-21T08:33:57Z</time>
      </trkpt>
      <trkpt lat="50.57046" lon="3.768">
        <ele>40.51</ele>
        <time>2016-07-21T08:34:11Z</time>
      </trkpt>
      <trkpt lat="50.57057" lon="3.76787">
        <ele>40.51</ele>
        <time>2016-07-21T08:34:21Z</time>
      </trkpt>
      <trkpt lat="50.57071" lon="3.76767">
        <ele>40.51</ele>
        <time>2016-07-21T08:34:35Z</time>
      </trkpt>
      <trkpt lat="50.57092" lon="3.76749">
        <ele>40.99</ele>
        <time>2016-07-21T08:34:53Z</time>
      </trkpt>
      <trkpt lat="50.571" lon="3.76747">
        <ele>41.95</ele>
        <time>2016-07-21T08:35:01Z</time>
      </trkpt>
      <trkpt lat="50.57127" lon="3.76737">
        <ele>42.44</ele>
        <time>2016-07-21T08:35:20Z</time>
      </trkpt>
      <trkpt lat="50.57151" lon="3.76735">
        <ele>42.92</ele>
        <time>2016-07-21T08:35:37Z</time>
      </trkpt>
      <trkpt lat="50.57168" lon="3.76738">
        <ele>42.92</ele>
        <time>2016-07-21T08:35:50Z</time>
      </trkpt>
      <trkpt lat="50.5717" lon="3.76738">
        <ele>42.92</ele>
        <time>2016-07-21T08:35:51Z</time>
      </trkpt>
      <trkpt lat="50.57171" lon="3.76738">
        <ele>42.92</ele>
        <time>2016-07-21T08:35:52Z</time>
      </trkpt>
      <trkpt lat="50.57172" lon="3.76738">
        <ele>42.92</ele>
        <time>2016-07-21T08:35:53Z</time>
      </trkpt>
      <trkpt lat="50.57174" lon="3.76739">
        <ele>42.92</ele>
        <time>2016-07-21T08:35:54Z</time>
      </trkpt>
      <trkpt lat="50.57175" lon="3.76739">
        <ele>42.92</ele>
        <time>2016-07-21T08:35:55Z</time>
      </trkpt>
      <trkpt lat="50.57176" lon="3.7674">
        <ele>42.92</ele>
        <time>2016-07-21T08:35:56Z</time>
      </trkpt>
      <trkpt lat="50.57177" lon="3.7674">
        <ele>42.92</ele>
        <time>2016-07-21T08:35:57Z</time>
      </trkpt>
      <trkpt lat="50.57178" lon="3.76741">
        <ele>42.92</ele>
        <time>2016-07-21T08:35:58Z</time>
      </trkpt>
      <trkpt lat="50.5718" lon="3.76742">
        <ele>41.95</ele>
        <time>2016-07-21T08:35:59Z</time>
      </trkpt>
      <trkpt lat="50.57181" lon="3.76743">
        <ele>41.95</ele>
        <time>2016-07-21T08:36:00Z</time>
      </trkpt>
      <trkpt lat="50.57184" lon="3.76746">
        <ele>43.4</ele>
        <time>2016-07-21T08:36:03Z</time>
      </trkpt>
      <trkpt lat="50.5719" lon="3.76748">
        <ele>41.95</ele>
        <time>2016-07-21T08:36:08Z</time>
      </trkpt>
      <trkpt lat="50.57204" lon="3.76751">
        <ele>41.95</ele>
        <time>2016-07-21T08:36:17Z</time>
      </trkpt>
      <trkpt lat="50.57211" lon="3.76753">
        <ele>43.4</ele>
        <time>2016-07-21T08:36:22Z</time>
      </trkpt>
      <trkpt lat="50.57221" lon="3.76756">
        <ele>41.95</ele>
        <time>2016-07-21T08:36:31Z</time>
      </trkpt>
      <trkpt lat="50.5724" lon="3.76764">
        <ele>41.95</ele>
        <time>2016-07-21T08:36:46Z</time>
      </trkpt>
      <trkpt lat="50.57269" lon="3.76773">
        <ele>43.4</ele>
        <time>2016-07-21T08:37:09Z</time>
      </trkpt>
      <trkpt lat="50.57298" lon="3.76785">
        <ele>44.84</ele>
        <time>2016-07-21T08:37:30Z</time>
      </trkpt>
      <trkpt lat="50.57319" lon="3.76793">
        <ele>44.36</ele>
        <time>2016-07-21T08:37:47Z</time>
      </trkpt>
      <trkpt lat="50.57344" lon="3.76796">
        <ele>43.4</ele>
        <time>2016-07-21T08:38:08Z</time>
      </trkpt>
      <trkpt lat="50.57349" lon="3.76798">
        <ele>43.88</ele>
        <time>2016-07-21T08:38:14Z</time>
      </trkpt>
      <trkpt lat="50.57364" lon="3.76797">
        <ele>46.28</ele>
        <time>2016-07-21T08:38:25Z</time>
      </trkpt>
      <trkpt lat="50.57371" lon="3.76796">
        <ele>44.84</ele>
        <time>2016-07-21T08:38:30Z</time>
      </trkpt>
      <trkpt lat="50.57387" lon="3.76802">
        <ele>45.8</ele>
        <time>2016-07-21T08:38:40Z</time>
      </trkpt>
      <trkpt lat="50.5739" lon="3.76803">
        <ele>44.36</ele>
        <time>2016-07-21T08:38:42Z</time>
      </trkpt>
      <trkpt lat="50.57405" lon="3.7681">
        <ele>44.84</ele>
        <time>2016-07-21T08:38:54Z</time>
      </trkpt>
      <trkpt lat="50.57421" lon="3.76808">
        <ele>44.36</ele>
        <time>2016-07-21T08:39:07Z</time>
      </trkpt>
      <trkpt lat="50.57425" lon="3.76801">
        <ele>45.32</ele>
        <time>2016-07-21T08:39:15Z</time>
      </trkpt>
      <trkpt lat="50.57434" lon="3.76803">
        <ele>43.88</ele>
        <time>2016-07-21T08:39:22Z</time>
      </trkpt>
      <trkpt lat="50.57437" lon="3.76805">
        <ele>46.28</ele>
        <time>2016-07-21T08:39:24Z</time>
      </trkpt>
      <trkpt lat="50.57452" lon="3.76806">
        <ele>45.32</ele>
        <time>2016-07-21T08:39:34Z</time>
      </trkpt>
      <trkpt lat="50.57465" lon="3.76805">
        <ele>46.28</ele>
        <time>2016-07-21T08:39:42Z</time>
      </trkpt>
      <trkpt lat="50.57479" lon="3.76802">
        <ele>44.84</ele>
        <time>2016-07-21T08:39:51Z</time>
      </trkpt>
      <trkpt lat="50.57482" lon="3.76802">
        <ele>46.76</ele>
        <time>2016-07-21T08:39:53Z</time>
      </trkpt>
      <trkpt lat="50.57489" lon="3.76805">
        <ele>45.32</ele>
        <time>2016-07-21T08:39:58Z</time>
      </trkpt>
      <trkpt lat="50.57515" lon="3.76817">
        <ele>46.28</ele>
        <time>2016-07-21T08:40:16Z</time>
      </trkpt>
      <trkpt lat="50.57518" lon="3.76817">
        <ele>44.84</ele>
        <time>2016-07-21T08:40:18Z</time>
      </trkpt>
      <trkpt lat="50.57523" lon="3.76821">
        <ele>43.4</ele>
        <time>2016-07-21T08:40:22Z</time>
      </trkpt>
      <trkpt lat="50.57525" lon="3.76821">
        <ele>45.32</ele>
        <time>2016-07-21T08:40:24Z</time>
      </trkpt>
      <trkpt lat="50.57558" lon="3.76824">
        <ele>45.8</ele>
        <time>2016-07-21T08:40:50Z</time>
      </trkpt>
      <trkpt lat="50.57572" lon="3.76825">
        <ele>44.36</ele>
        <time>2016-07-21T08:41:01Z</time>
      </trkpt>
      <trkpt lat="50.57582" lon="3.76826">
        <ele>46.76</ele>
        <time>2016-07-21T08:41:08Z</time>
      </trkpt>
      <trkpt lat="50.57585" lon="3.76827">
        <ele>45.32</ele>
        <time>2016-07-21T08:41:10Z</time>
      </trkpt>
      <trkpt lat="50.57595" lon="3.76829">
        <ele>46.28</ele>
        <time>2016-07-21T08:41:17Z</time>
      </trkpt>
      <trkpt lat="50.57604" lon="3.7683">
        <ele>43.4</ele>
        <time>2016-07-21T08:41:25Z</time>
      </trkpt>
      <trkpt lat="50.57616" lon="3.76828">
        <ele>42.92</ele>
        <time>2016-07-21T08:41:34Z</time>
      </trkpt>
      <trkpt lat="50.57633" lon="3.76826">
        <ele>43.88</ele>
        <time>2016-07-21T08:41:46Z</time>
      </trkpt>
      <trkpt lat="50.57638" lon="3.76826">
        <ele>44.36</ele>
        <time>2016-07-21T08:41:51Z</time>
      </trkpt>
      <trkpt lat="50.57642" lon="3.76824">
        <ele>43.4</ele>
        <time>2016-07-21T08:41:56Z</time>
      </trkpt>
      <trkpt lat="50.57646" lon="3.76823">
        <ele>43.88</ele>
        <time>2016-07-21T08:42:01Z</time>
      </trkpt>
      <trkpt lat="50.57661" lon="3.76822">
        <ele>43.4</ele>
        <time>2016-07-21T08:42:11Z</time>
      </trkpt>
      <trkpt lat="50.57664" lon="3.76818">
        <ele>44.84</ele>
        <time>2016-07-21T08:42:13Z</time>
      </trkpt>
      <trkpt lat="50.57665" lon="3.7681">
        <ele>44.84</ele>
        <time>2016-07-21T08:42:16Z</time>
      </trkpt>
      <trkpt lat="50.57659" lon="3.76789">
        <ele>43.88</ele>
        <time>2016-07-21T08:42:25Z</time>
      </trkpt>
      <trkpt lat="50.57649" lon="3.76738">
        <ele>45.32</ele>
        <time>2016-07-21T08:42:50Z</time>
      </trkpt>
      <trkpt lat="50.57648" lon="3.76716">
        <ele>46.76</ele>
        <time>2016-07-21T08:43:00Z</time>
      </trkpt>
      <trkpt lat="50.57646" lon="3.76709">
        <ele>43.88</ele>
        <time>2016-07-21T08:43:04Z</time>
      </trkpt>
      <trkpt lat="50.57645" lon="3.76706">
        <ele>45.8</ele>
        <time>2016-07-21T08:43:06Z</time>
      </trkpt>
      <trkpt lat="50.57635" lon="3.76665">
        <ele>46.76</ele>
        <time>2016-07-21T08:43:26Z</time>
      </trkpt>
      <trkpt lat="50.5763" lon="3.76656">
        <ele>45.8</ele>
        <time>2016-07-21T08:43:32Z</time>
      </trkpt>
      <trkpt lat="50.57597" lon="3.76657">
        <ele>46.28</ele>
        <time>2016-07-21T08:43:53Z</time>
      </trkpt>
      <trkpt lat="50.57578" lon="3.76656">
        <ele>46.76</ele>
        <time>2016-07-21T08:44:08Z</time>
      </trkpt>
      <trkpt lat="50.57572" lon="3.76654">
        <ele>45.8</ele>
        <time>2016-07-21T08:44:13Z</time>
      </trkpt>
      <trkpt lat="50.57566" lon="3.76656">
        <ele>46.76</ele>
        <time>2016-07-21T08:44:18Z</time>
      </trkpt>
      <trkpt lat="50.57544" lon="3.76653">
        <ele>47.24</ele>
        <time>2016-07-21T08:44:35Z</time>
      </trkpt>
      <trkpt lat="50.57528" lon="3.76646">
        <ele>47.24</ele>
        <time>2016-07-21T08:44:46Z</time>
      </trkpt>
      <trkpt lat="50.57499" lon="3.76638">
        <ele>47.24</ele>
        <time>2016-07-21T08:45:05Z</time>
      </trkpt>
      <trkpt lat="50.57468" lon="3.76623">
        <ele>46.76</ele>
        <time>2016-07-21T08:45:27Z</time>
      </trkpt>
      <trkpt lat="50.57466" lon="3.76621">
        <ele>48.68</ele>
        <time>2016-07-21T08:45:29Z</time>
      </trkpt>
      <trkpt lat="50.57465" lon="3.76619">
        <ele>47.24</ele>
        <time>2016-07-21T08:45:31Z</time>
      </trkpt>
      <trkpt lat="50.57457" lon="3.7661">
        <ele>48.2</ele>
        <time>2016-07-21T08:45:39Z</time>
      </trkpt>
      <trkpt lat="50.57455" lon="3.76609">
        <ele>46.76</ele>
        <time>2016-07-21T08:45:41Z</time>
      </trkpt>
      <trkpt lat="50.5745" lon="3.76608">
        <ele>49.16</ele>
        <time>2016-07-21T08:45:45Z</time>
      </trkpt>
      <trkpt lat="50.57448" lon="3.76608">
        <ele>47.72</ele>
        <time>2016-07-21T08:45:47Z</time>
      </trkpt>
      <trkpt lat="50.5744" lon="3.76606">
        <ele>48.2</ele>
        <time>2016-07-21T08:45:53Z</time>
      </trkpt>
      <trkpt lat="50.57432" lon="3.76601">
        <ele>48.2</ele>
        <time>2016-07-21T08:45:59Z</time>
      </trkpt>
      <trkpt lat="50.57414" lon="3.76592">
        <ele>48.2</ele>
        <time>2016-07-21T08:46:12Z</time>
      </trkpt>
      <trkpt lat="50.57413" lon="3.76591">
        <ele>48.2</ele>
        <time>2016-07-21T08:46:14Z</time>
      </trkpt>
      <trkpt lat="50.57411" lon="3.76583">
        <ele>48.2</ele>
        <time>2016-07-21T08:46:18Z</time>
      </trkpt>
      <trkpt lat="50.57417" lon="3.76557">
        <ele>49.16</ele>
        <time>2016-07-21T08:46:31Z</time>
      </trkpt>
      <trkpt lat="50.57419" lon="3.76554">
        <ele>47.72</ele>
        <time>2016-07-21T08:46:33Z</time>
      </trkpt>
      <trkpt lat="50.57419" lon="3.76552">
        <ele>47.72</ele>
        <time>2016-07-21T08:46:34Z</time>
      </trkpt>
      <trkpt lat="50.57424" lon="3.76538">
        <ele>49.65</ele>
        <time>2016-07-21T08:46:42Z</time>
      </trkpt>
      <trkpt lat="50.57426" lon="3.76535">
        <ele>48.2</ele>
        <time>2016-07-21T08:46:44Z</time>
      </trkpt>
      <trkpt lat="50.57425" lon="3.76526">
        <ele>46.76</ele>
        <time>2016-07-21T08:46:49Z</time>
      </trkpt>
      <trkpt lat="50.57423" lon="3.76523">
        <ele>48.2</ele>
        <time>2016-07-21T08:46:51Z</time>
      </trkpt>
      <trkpt lat="50.57421" lon="3.7652">
        <ele>49.65</ele>
        <time>2016-07-21T08:46:53Z</time>
      </trkpt>
      <trkpt lat="50.57419" lon="3.76516">
        <ele>48.2</ele>
        <time>2016-07-21T08:46:55Z</time>
      </trkpt>
      <trkpt lat="50.5741" lon="3.76497">
        <ele>48.68</ele>
        <time>2016-07-21T08:47:04Z</time>
      </trkpt>
      <trkpt lat="50.57405" lon="3.76487">
        <ele>47.24</ele>
        <time>2016-07-21T08:47:11Z</time>
      </trkpt>
      <trkpt lat="50.57384" lon="3.76496">
        <ele>47.72</ele>
        <time>2016-07-21T08:47:30Z</time>
      </trkpt>
      <trkpt lat="50.57379" lon="3.76499">
        <ele>49.16</ele>
        <time>2016-07-21T08:47:33Z</time>
      </trkpt>
      <trkpt lat="50.57366" lon="3.76509">
        <ele>47.24</ele>
        <time>2016-07-21T08:47:46Z</time>
      </trkpt>
      <trkpt lat="50.57359" lon="3.76509">
        <ele>47.24</ele>
        <time>2016-07-21T08:47:50Z</time>
      </trkpt>
      <trkpt lat="50.5735" lon="3.76508">
        <ele>48.2</ele>
        <time>2016-07-21T08:47:55Z</time>
      </trkpt>
      <trkpt lat="50.57347" lon="3.76507">
        <ele>46.76</ele>
        <time>2016-07-21T08:47:57Z</time>
      </trkpt>
      <trkpt lat="50.5734" lon="3.76507">
        <ele>48.2</ele>
        <time>2016-07-21T08:48:02Z</time>
      </trkpt>
      <trkpt lat="50.57333" lon="3.76508">
        <ele>44.84</ele>
        <time>2016-07-21T08:48:08Z</time>
      </trkpt>
      <trkpt lat="50.57323" lon="3.76507">
        <ele>44.36</ele>
        <time>2016-07-21T08:48:16Z</time>
      </trkpt>
      <trkpt lat="50.57322" lon="3.76507">
        <ele>47.72</ele>
        <time>2016-07-21T08:48:17Z</time>
      </trkpt>
      <trkpt lat="50.5732" lon="3.76507">
        <ele>46.28</ele>
        <time>2016-07-21T08:48:18Z</time>
      </trkpt>
      <trkpt lat="50.57304" lon="3.76505">
        <ele>47.24</ele>
        <time>2016-07-21T08:48:33Z</time>
      </trkpt>
      <trkpt lat="50.57291" lon="3.76503">
        <ele>46.76</ele>
        <time>2016-07-21T08:48:41Z</time>
      </trkpt>
      <trkpt lat="50.57284" lon="3.76503">
        <ele>47.24</ele>
        <time>2016-07-21T08:48:46Z</time>
      </trkpt>
      <trkpt lat="50.57283" lon="3.76503">
        <ele>45.8</ele>
        <time>2016-07-21T08:48:48Z</time>
      </trkpt>
      <trkpt lat="50.57275" lon="3.76503">
        <ele>46.28</ele>
        <time>2016-07-21T08:48:54Z</time>
      </trkpt>
      <trkpt lat="50.57268" lon="3.76502">
        <ele>45.32</ele>
        <time>2016-07-21T08:48:58Z</time>
      </trkpt>
      <trkpt lat="50.57252" lon="3.76505">
        <ele>46.28</ele>
        <time>2016-07-21T08:49:11Z</time>
      </trkpt>
      <trkpt lat="50.57243" lon="3.76508">
        <ele>45.8</ele>
        <time>2016-07-21T08:49:20Z</time>
      </trkpt>
      <trkpt lat="50.57237" lon="3.76503">
        <ele>45.8</ele>
        <time>2016-07-21T08:49:25Z</time>
      </trkpt>
      <trkpt lat="50.57233" lon="3.76493">
        <ele>46.28</ele>
        <time>2016-07-21T08:49:31Z</time>
      </trkpt>
      <trkpt lat="50.57233" lon="3.7649">
        <ele>44.84</ele>
        <time>2016-07-21T08:49:33Z</time>
      </trkpt>
      <trkpt lat="50.57232" lon="3.76484">
        <ele>46.76</ele>
        <time>2016-07-21T08:49:36Z</time>
      </trkpt>
      <trkpt lat="50.57229" lon="3.76474">
        <ele>45.32</ele>
        <time>2016-07-21T08:49:41Z</time>
      </trkpt>
      <trkpt lat="50.57224" lon="3.76469">
        <ele>48.2</ele>
        <time>2016-07-21T08:49:46Z</time>
      </trkpt>
      <trkpt lat="50.57204" lon="3.76456">
        <ele>45.32</ele>
        <time>2016-07-21T08:49:59Z</time>
      </trkpt>
      <trkpt lat="50.57177" lon="3.76435">
        <ele>45.8</ele>
        <time>2016-07-21T08:50:18Z</time>
      </trkpt>
      <trkpt lat="50.57159" lon="3.76416">
        <ele>46.76</ele>
        <time>2016-07-21T08:50:35Z</time>
      </trkpt>
      <trkpt lat="50.57158" lon="3.76415">
        <ele>46.76</ele>
        <time>2016-07-21T08:50:36Z</time>
      </trkpt>
      <trkpt lat="50.57149" lon="3.76406">
        <ele>44.84</ele>
        <time>2016-07-21T08:50:44Z</time>
      </trkpt>
      <trkpt lat="50.5714" lon="3.76395">
        <ele>46.28</ele>
        <time>2016-07-21T08:50:52Z</time>
      </trkpt>
      <trkpt lat="50.57134" lon="3.76389">
        <ele>44.36</ele>
        <time>2016-07-21T08:50:57Z</time>
      </trkpt>
      <trkpt lat="50.5713" lon="3.76383">
        <ele>46.76</ele>
        <time>2016-07-21T08:51:01Z</time>
      </trkpt>
      <trkpt lat="50.57114" lon="3.76368">
        <ele>46.28</ele>
        <time>2016-07-21T08:51:15Z</time>
      </trkpt>
      <trkpt lat="50.57094" lon="3.76339">
        <ele>45.32</ele>
        <time>2016-07-21T08:51:34Z</time>
      </trkpt>
      <trkpt lat="50.57087" lon="3.76325">
        <ele>47.24</ele>
        <time>2016-07-21T08:51:42Z</time>
      </trkpt>
      <trkpt lat="50.57076" lon="3.76295">
        <ele>46.76</ele>
        <time>2016-07-21T08:51:57Z</time>
      </trkpt>
      <trkpt lat="50.57066" lon="3.76266">
        <ele>47.24</ele>
        <time>2016-07-21T08:52:15Z</time>
      </trkpt>
      <trkpt lat="50.57065" lon="3.76262">
        <ele>48.2</ele>
        <time>2016-07-21T08:52:17Z</time>
      </trkpt>
      <trkpt lat="50.57049" lon="3.7623">
        <ele>45.8</ele>
        <time>2016-07-21T08:52:34Z</time>
      </trkpt>
      <trkpt lat="50.57037" lon="3.76197">
        <ele>46.76</ele>
        <time>2016-07-21T08:52:50Z</time>
      </trkpt>
      <trkpt lat="50.57031" lon="3.76176">
        <ele>48.2</ele>
        <time>2016-07-21T08:53:00Z</time>
      </trkpt>
      <trkpt lat="50.57029" lon="3.76169">
        <ele>47.24</ele>
        <time>2016-07-21T08:53:03Z</time>
      </trkpt>
      <trkpt lat="50.57019" lon="3.76136">
        <ele>47.72</ele>
        <time>2016-07-21T08:53:20Z</time>
      </trkpt>
      <trkpt lat="50.57008" lon="3.76103">
        <ele>46.28</ele>
        <time>2016-07-21T08:53:36Z</time>
      </trkpt>
      <trkpt lat="50.57008" lon="3.76101">
        <ele>46.28</ele>
        <time>2016-07-21T08:53:37Z</time>
      </trkpt>
      <trkpt lat="50.57003" lon="3.76083">
        <ele>46.28</ele>
        <time>2016-07-21T08:53:45Z</time>
      </trkpt>
      <trkpt lat="50.57" lon="3.76065">
        <ele>47.72</ele>
        <time>2016-07-21T08:53:53Z</time>
      </trkpt>
      <trkpt lat="50.56996" lon="3.76047">
        <ele>48.2</ele>
        <time>2016-07-21T08:54:03Z</time>
      </trkpt>
      <trkpt lat="50.56994" lon="3.76039">
        <ele>46.28</ele>
        <time>2016-07-21T08:54:08Z</time>
      </trkpt>
      <trkpt lat="50.5699" lon="3.76019">
        <ele>48.2</ele>
        <time>2016-07-21T08:54:19Z</time>
      </trkpt>
      <trkpt lat="50.56989" lon="3.76017">
        <ele>48.2</ele>
        <time>2016-07-21T08:54:20Z</time>
      </trkpt>
      <trkpt lat="50.56986" lon="3.76014">
        <ele>46.28</ele>
        <time>2016-07-21T08:54:22Z</time>
      </trkpt>
      <trkpt lat="50.56975" lon="3.75982">
        <ele>47.72</ele>
        <time>2016-07-21T08:54:38Z</time>
      </trkpt>
      <trkpt lat="50.56972" lon="3.75977">
        <ele>46.76</ele>
        <time>2016-07-21T08:54:41Z</time>
      </trkpt>
      <trkpt lat="50.5696" lon="3.75948">
        <ele>45.32</ele>
        <time>2016-07-21T08:54:57Z</time>
      </trkpt>
      <trkpt lat="50.56958" lon="3.75941">
        <ele>47.24</ele>
        <time>2016-07-21T08:55:00Z</time>
      </trkpt>
      <trkpt lat="50.56952" lon="3.75927">
        <ele>46.76</ele>
        <time>2016-07-21T08:55:07Z</time>
      </trkpt>
      <trkpt lat="50.56943" lon="3.75905">
        <ele>47.72</ele>
        <time>2016-07-21T08:55:19Z</time>
      </trkpt>
      <trkpt lat="50.56941" lon="3.75898">
        <ele>45.8</ele>
        <time>2016-07-21T08:55:22Z</time>
      </trkpt>
      <trkpt lat="50.56937" lon="3.75882">
        <ele>48.68</ele>
        <time>2016-07-21T08:55:29Z</time>
      </trkpt>
      <trkpt lat="50.56935" lon="3.75874">
        <ele>47.24</ele>
        <time>2016-07-21T08:55:32Z</time>
      </trkpt>
      <trkpt lat="50.5692" lon="3.75848">
        <ele>46.28</ele>
        <time>2016-07-21T08:55:47Z</time>
      </trkpt>
      <trkpt lat="50.56915" lon="3.75836">
        <ele>47.24</ele>
        <time>2016-07-21T08:55:54Z</time>
      </trkpt>
      <trkpt lat="50.56907" lon="3.75829">
        <ele>46.28</ele>
        <time>2016-07-21T08:56:01Z</time>
      </trkpt>
      <trkpt lat="50.56887" lon="3.75801">
        <ele>45.8</ele>
        <time>2016-07-21T08:56:20Z</time>
      </trkpt>
      <trkpt lat="50.56868" lon="3.75762">
        <ele>46.28</ele>
        <time>2016-07-21T08:56:41Z</time>
      </trkpt>
      <trkpt lat="50.56864" lon="3.75752">
        <ele>47.24</ele>
        <time>2016-07-21T08:56:47Z</time>
      </trkpt>
      <trkpt lat="50.56855" lon="3.75734">
        <ele>46.76</ele>
        <time>2016-07-21T08:56:58Z</time>
      </trkpt>
      <trkpt lat="50.56846" lon="3.75716">
        <ele>45.8</ele>
        <time>2016-07-21T08:57:09Z</time>
      </trkpt>
      <trkpt lat="50.56843" lon="3.75712">
        <ele>48.2</ele>
        <time>2016-07-21T08:57:12Z</time>
      </trkpt>
      <trkpt lat="50.56843" lon="3.75709">
        <ele>48.2</ele>
        <time>2016-07-21T08:57:13Z</time>
      </trkpt>
      <trkpt lat="50.56839" lon="3.75703">
        <ele>46.28</ele>
        <time>2016-07-21T08:57:16Z</time>
      </trkpt>
      <trkpt lat="50.56829" lon="3.75676">
        <ele>47.72</ele>
        <time>2016-07-21T08:57:30Z</time>
      </trkpt>
      <trkpt lat="50.56829" lon="3.75674">
        <ele>45.8</ele>
        <time>2016-07-21T08:57:31Z</time>
      </trkpt>
      <trkpt lat="50.5683" lon="3.75673">
        <ele>46.28</ele>
        <time>2016-07-21T08:57:32Z</time>
      </trkpt>
      <trkpt lat="50.56848" lon="3.75651">
        <ele>48.68</ele>
        <time>2016-07-21T08:57:48Z</time>
      </trkpt>
      <trkpt lat="50.5685" lon="3.75648">
        <ele>47.24</ele>
        <time>2016-07-21T08:57:50Z</time>
      </trkpt>
      <trkpt lat="50.56864" lon="3.7562">
        <ele>47.72</ele>
        <time>2016-07-21T08:58:08Z</time>
      </trkpt>
      <trkpt lat="50.56864" lon="3.75606">
        <ele>48.2</ele>
        <time>2016-07-21T08:58:16Z</time>
      </trkpt>
      <trkpt lat="50.56863" lon="3.75605">
        <ele>48.2</ele>
        <time>2016-07-21T08:58:17Z</time>
      </trkpt>
      <trkpt lat="50.56857" lon="3.75594">
        <ele>46.76</ele>
        <time>2016-07-21T08:58:23Z</time>
      </trkpt>
      <trkpt lat="50.56851" lon="3.75589">
        <ele>48.68</ele>
        <time>2016-07-21T08:58:27Z</time>
      </trkpt>
      <trkpt lat="50.56847" lon="3.75583">
        <ele>47.24</ele>
        <time>2016-07-21T08:58:32Z</time>
      </trkpt>
      <trkpt lat="50.56839" lon="3.75567">
        <ele>49.16</ele>
        <time>2016-07-21T08:58:42Z</time>
      </trkpt>
      <trkpt lat="50.56841" lon="3.7556">
        <ele>47.72</ele>
        <time>2016-07-21T08:58:45Z</time>
      </trkpt>
      <trkpt lat="50.56844" lon="3.75555">
        <ele>47.24</ele>
        <time>2016-07-21T08:58:47Z</time>
      </trkpt>
      <trkpt lat="50.56846" lon="3.75553">
        <ele>47.24</ele>
        <time>2016-07-21T08:58:48Z</time>
      </trkpt>
      <trkpt lat="50.56856" lon="3.75539">
        <ele>45.8</ele>
        <time>2016-07-21T08:58:55Z</time>
      </trkpt>
      <trkpt lat="50.56855" lon="3.75536">
        <ele>49.16</ele>
        <time>2016-07-21T08:58:57Z</time>
      </trkpt>
      <trkpt lat="50.56846" lon="3.75526">
        <ele>48.2</ele>
        <time>2016-07-21T08:59:05Z</time>
      </trkpt>
      <trkpt lat="50.56841" lon="3.75518">
        <ele>46.76</ele>
        <time>2016-07-21T08:59:11Z</time>
      </trkpt>
      <trkpt lat="50.56838" lon="3.75509">
        <ele>50.13</ele>
        <time>2016-07-21T08:59:15Z</time>
      </trkpt>
      <trkpt lat="50.56837" lon="3.75501">
        <ele>47.24</ele>
        <time>2016-07-21T08:59:18Z</time>
      </trkpt>
      <trkpt lat="50.56833" lon="3.75474">
        <ele>47.24</ele>
        <time>2016-07-21T08:59:30Z</time>
      </trkpt>
      <trkpt lat="50.56834" lon="3.75467">
        <ele>48.68</ele>
        <time>2016-07-21T08:59:34Z</time>
      </trkpt>
      <trkpt lat="50.56834" lon="3.75462">
        <ele>47.24</ele>
        <time>2016-07-21T08:59:37Z</time>
      </trkpt>
      <trkpt lat="50.56833" lon="3.7546">
        <ele>50.61</ele>
        <time>2016-07-21T08:59:38Z</time>
      </trkpt>
      <trkpt lat="50.56833" lon="3.75457">
        <ele>49.16</ele>
        <time>2016-07-21T08:59:39Z</time>
      </trkpt>
      <trkpt lat="50.56831" lon="3.75449">
        <ele>47.24</ele>
        <time>2016-07-21T08:59:43Z</time>
      </trkpt>
      <trkpt lat="50.5683" lon="3.75441">
        <ele>47.24</ele>
        <time>2016-07-21T08:59:47Z</time>
      </trkpt>
      <trkpt lat="50.5683" lon="3.75439">
        <ele>47.24</ele>
        <time>2016-07-21T08:59:48Z</time>
      </trkpt>
      <trkpt lat="50.5683" lon="3.75436">
        <ele>47.24</ele>
        <time>2016-07-21T08:59:49Z</time>
      </trkpt>
      <trkpt lat="50.5683" lon="3.75434">
        <ele>48.68</ele>
        <time>2016-07-21T08:59:50Z</time>
      </trkpt>
      <trkpt lat="50.5683" lon="3.75432">
        <ele>49.16</ele>
        <time>2016-07-21T08:59:51Z</time>
      </trkpt>
      <trkpt lat="50.56829" lon="3.7543">
        <ele>49.16</ele>
        <time>2016-07-21T08:59:52Z</time>
      </trkpt>
      <trkpt lat="50.56828" lon="3.75428">
        <ele>47.72</ele>
        <time>2016-07-21T08:59:53Z</time>
      </trkpt>
      <trkpt lat="50.56827" lon="3.75427">
        <ele>47.72</ele>
        <time>2016-07-21T08:59:54Z</time>
      </trkpt>
      <trkpt lat="50.56805" lon="3.75399">
        <ele>47.72</ele>
        <time>2016-07-21T09:00:13Z</time>
      </trkpt>
      <trkpt lat="50.56795" lon="3.75385">
        <ele>48.68</ele>
        <time>2016-07-21T09:00:21Z</time>
      </trkpt>
      <trkpt lat="50.5679" lon="3.75381">
        <ele>48.68</ele>
        <time>2016-07-21T09:00:25Z</time>
      </trkpt>
      <trkpt lat="50.56783" lon="3.75385">
        <ele>48.2</ele>
        <time>2016-07-21T09:00:32Z</time>
      </trkpt>
      <trkpt lat="50.56778" lon="3.7538">
        <ele>47.72</ele>
        <time>2016-07-21T09:00:36Z</time>
      </trkpt>
      <trkpt lat="50.56773" lon="3.75374">
        <ele>47.72</ele>
        <time>2016-07-21T09:00:40Z</time>
      </trkpt>
      <trkpt lat="50.56767" lon="3.75358">
        <ele>48.68</ele>
        <time>2016-07-21T09:00:49Z</time>
      </trkpt>
      <trkpt lat="50.56766" lon="3.75355">
        <ele>46.28</ele>
        <time>2016-07-21T09:00:51Z</time>
      </trkpt>
      <trkpt lat="50.56758" lon="3.75343">
        <ele>48.2</ele>
        <time>2016-07-21T09:01:00Z</time>
      </trkpt>
      <trkpt lat="50.56754" lon="3.7534">
        <ele>46.28</ele>
        <time>2016-07-21T09:01:03Z</time>
      </trkpt>
      <trkpt lat="50.56754" lon="3.75338">
        <ele>46.28</ele>
        <time>2016-07-21T09:01:04Z</time>
      </trkpt>
      <trkpt lat="50.56754" lon="3.75335">
        <ele>46.28</ele>
        <time>2016-07-21T09:01:05Z</time>
      </trkpt>
      <trkpt lat="50.56755" lon="3.75331">
        <ele>47.72</ele>
        <time>2016-07-21T09:01:07Z</time>
      </trkpt>
      <trkpt lat="50.56754" lon="3.75327">
        <ele>46.28</ele>
        <time>2016-07-21T09:01:09Z</time>
      </trkpt>
      <trkpt lat="50.56754" lon="3.75325">
        <ele>47.72</ele>
        <time>2016-07-21T09:01:10Z</time>
      </trkpt>
      <trkpt lat="50.56761" lon="3.75294">
        <ele>48.2</ele>
        <time>2016-07-21T09:01:26Z</time>
      </trkpt>
      <trkpt lat="50.56762" lon="3.75293">
        <ele>48.2</ele>
        <time>2016-07-21T09:01:27Z</time>
      </trkpt>
      <trkpt lat="50.56763" lon="3.75291">
        <ele>48.2</ele>
        <time>2016-07-21T09:01:28Z</time>
      </trkpt>
      <trkpt lat="50.56771" lon="3.75265">
        <ele>47.24</ele>
        <time>2016-07-21T09:01:41Z</time>
      </trkpt>
      <trkpt lat="50.56764" lon="3.75258">
        <ele>48.68</ele>
        <time>2016-07-21T09:01:48Z</time>
      </trkpt>
      <trkpt lat="50.56763" lon="3.75257">
        <ele>48.68</ele>
        <time>2016-07-21T09:01:49Z</time>
      </trkpt>
      <trkpt lat="50.56755" lon="3.75248">
        <ele>47.24</ele>
        <time>2016-07-21T09:01:57Z</time>
      </trkpt>
      <trkpt lat="50.56744" lon="3.75233">
        <ele>45.8</ele>
        <time>2016-07-21T09:02:07Z</time>
      </trkpt>
      <trkpt lat="50.5674" lon="3.7523">
        <ele>47.24</ele>
        <time>2016-07-21T09:02:10Z</time>
      </trkpt>
      <trkpt lat="50.5672" lon="3.75203">
        <ele>45.32</ele>
        <time>2016-07-21T09:02:27Z</time>
      </trkpt>
      <trkpt lat="50.56713" lon="3.75195">
        <ele>46.76</ele>
        <time>2016-07-21T09:02:33Z</time>
      </trkpt>
      <trkpt lat="50.56703" lon="3.75184">
        <ele>47.24</ele>
        <time>2016-07-21T09:02:41Z</time>
      </trkpt>
      <trkpt lat="50.56699" lon="3.7518">
        <ele>45.32</ele>
        <time>2016-07-21T09:02:44Z</time>
      </trkpt>
      <trkpt lat="50.56689" lon="3.75169">
        <ele>46.76</ele>
        <time>2016-07-21T09:02:52Z</time>
      </trkpt>
      <trkpt lat="50.56682" lon="3.75161">
        <ele>45.8</ele>
        <time>2016-07-21T09:02:59Z</time>
      </trkpt>
      <trkpt lat="50.5668" lon="3.75157">
        <ele>46.76</ele>
        <time>2016-07-21T09:03:01Z</time>
      </trkpt>
      <trkpt lat="50.56677" lon="3.75155">
        <ele>45.32</ele>
        <time>2016-07-21T09:03:03Z</time>
      </trkpt>
      <trkpt lat="50.56663" lon="3.75136">
        <ele>43.88</ele>
        <time>2016-07-21T09:03:16Z</time>
      </trkpt>
      <trkpt lat="50.56662" lon="3.75134">
        <ele>43.88</ele>
        <time>2016-07-21T09:03:17Z</time>
      </trkpt>
      <trkpt lat="50.56656" lon="3.75128">
        <ele>46.28</ele>
        <time>2016-07-21T09:03:21Z</time>
      </trkpt>
      <trkpt lat="50.5665" lon="3.75126">
        <ele>44.36</ele>
        <time>2016-07-21T09:03:25Z</time>
      </trkpt>
      <trkpt lat="50.56624" lon="3.75134">
        <ele>42.44</ele>
        <time>2016-07-21T09:03:43Z</time>
      </trkpt>
      <trkpt lat="50.5662" lon="3.75135">
        <ele>43.88</ele>
        <time>2016-07-21T09:03:46Z</time>
      </trkpt>
      <trkpt lat="50.56617" lon="3.75136">
        <ele>45.32</ele>
        <time>2016-07-21T09:03:48Z</time>
      </trkpt>
      <trkpt lat="50.56603" lon="3.75143">
        <ele>41.95</ele>
        <time>2016-07-21T09:03:59Z</time>
      </trkpt>
      <trkpt lat="50.56591" lon="3.7516">
        <ele>42.44</ele>
        <time>2016-07-21T09:04:09Z</time>
      </trkpt>
      <trkpt lat="50.56581" lon="3.75179">
        <ele>40.51</ele>
        <time>2016-07-21T09:04:20Z</time>
      </trkpt>
      <trkpt lat="50.56581" lon="3.75183">
        <ele>43.88</ele>
        <time>2016-07-21T09:04:22Z</time>
      </trkpt>
      <trkpt lat="50.56573" lon="3.7521">
        <ele>40.99</ele>
        <time>2016-07-21T09:04:37Z</time>
      </trkpt>
      <trkpt lat="50.56569" lon="3.75218">
        <ele>42.92</ele>
        <time>2016-07-21T09:04:42Z</time>
      </trkpt>
      <trkpt lat="50.56568" lon="3.75222">
        <ele>41.47</ele>
        <time>2016-07-21T09:04:45Z</time>
      </trkpt>
      <trkpt lat="50.56557" lon="3.75257">
        <ele>42.44</ele>
        <time>2016-07-21T09:05:04Z</time>
      </trkpt>
      <trkpt lat="50.56553" lon="3.75265">
        <ele>40.51</ele>
        <time>2016-07-21T09:05:08Z</time>
      </trkpt>
      <trkpt lat="50.5654" lon="3.75288">
        <ele>41.95</ele>
        <time>2016-07-21T09:05:20Z</time>
      </trkpt>
      <trkpt lat="50.56538" lon="3.7529">
        <ele>41.95</ele>
        <time>2016-07-21T09:05:21Z</time>
      </trkpt>
      <trkpt lat="50.56523" lon="3.75318">
        <ele>41.47</ele>
        <time>2016-07-21T09:05:36Z</time>
      </trkpt>
      <trkpt lat="50.56518" lon="3.75326">
        <ele>38.59</ele>
        <time>2016-07-21T09:05:41Z</time>
      </trkpt>
      <trkpt lat="50.56516" lon="3.7533">
        <ele>40.99</ele>
        <time>2016-07-21T09:05:43Z</time>
      </trkpt>
      <trkpt lat="50.56514" lon="3.75334">
        <ele>42.44</ele>
        <time>2016-07-21T09:05:45Z</time>
      </trkpt>
      <trkpt lat="50.56511" lon="3.75338">
        <ele>40.99</ele>
        <time>2016-07-21T09:05:48Z</time>
      </trkpt>
      <trkpt lat="50.56507" lon="3.75346">
        <ele>40.03</ele>
        <time>2016-07-21T09:05:52Z</time>
      </trkpt>
      <trkpt lat="50.56492" lon="3.75369">
        <ele>39.07</ele>
        <time>2016-07-21T09:06:05Z</time>
      </trkpt>
      <trkpt lat="50.56491" lon="3.75371">
        <ele>39.07</ele>
        <time>2016-07-21T09:06:06Z</time>
      </trkpt>
      <trkpt lat="50.56489" lon="3.75378">
        <ele>41.95</ele>
        <time>2016-07-21T09:06:09Z</time>
      </trkpt>
      <trkpt lat="50.56488" lon="3.75381">
        <ele>40.51</ele>
        <time>2016-07-21T09:06:11Z</time>
      </trkpt>
      <trkpt lat="50.56479" lon="3.754">
        <ele>40.03</ele>
        <time>2016-07-21T09:06:23Z</time>
      </trkpt>
      <trkpt lat="50.56476" lon="3.754">
        <ele>41.95</ele>
        <time>2016-07-21T09:06:26Z</time>
      </trkpt>
      <trkpt lat="50.56469" lon="3.75399">
        <ele>39.07</ele>
        <time>2016-07-21T09:06:34Z</time>
      </trkpt>
      <trkpt lat="50.56468" lon="3.75397">
        <ele>39.07</ele>
        <time>2016-07-21T09:06:35Z</time>
      </trkpt>
      <trkpt lat="50.56466" lon="3.75395">
        <ele>40.99</ele>
        <time>2016-07-21T09:06:37Z</time>
      </trkpt>
      <trkpt lat="50.56465" lon="3.75394">
        <ele>40.99</ele>
        <time>2016-07-21T09:06:38Z</time>
      </trkpt>
      <trkpt lat="50.56464" lon="3.75392">
        <ele>40.99</ele>
        <time>2016-07-21T09:06:39Z</time>
      </trkpt>
      <trkpt lat="50.56463" lon="3.7539">
        <ele>40.99</ele>
        <time>2016-07-21T09:06:40Z</time>
      </trkpt>
      <trkpt lat="50.56462" lon="3.75389">
        <ele>40.99</ele>
        <time>2016-07-21T09:06:41Z</time>
      </trkpt>
      <trkpt lat="50.5646" lon="3.75388">
        <ele>40.99</ele>
        <time>2016-07-21T09:06:42Z</time>
      </trkpt>
      <trkpt lat="50.56459" lon="3.75387">
        <ele>40.99</ele>
        <time>2016-07-21T09:06:43Z</time>
      </trkpt>
      <trkpt lat="50.56452" lon="3.75382">
        <ele>40.99</ele>
        <time>2016-07-21T09:06:52Z</time>
      </trkpt>
      <trkpt lat="50.56451" lon="3.75383">
        <ele>40.99</ele>
        <time>2016-07-21T09:07:05Z</time>
      </trkpt>
    </trkseg>
  </trk>
</gpx>